Darstellungsparameter: Aktuell verwendete Einstellungen:
Skalierung der Graphiken ... ?
xyx+y,   Skalierungsfaktor:      Skalierung: Modus: x, Faktor: 1
Darstellungszeitraum ... ?
Vom - - bis: - -   Zeitraum: 02.08.2018 - 06.08.2018
Min/Max/Avg-Anzeige ... ?
Zeige MMA aktuell
Zeige MMA Monat
Zeige MMA alles
Zeige --A aktuell
Zeige --A Monat
Zeige --A alles
Keine MMA-Anzeige
MMA:
Keine MMA-Graphiken
MMA-Basis: 02.08.2018 - 06.08.2018
Quicknavigation für Darstellung... ?
Tage:      1T, 2T, 3T, 5T -1T -2T -3T -5T +1T +2T +3T +5T
Wochen: 1W, 2W, 3W -1W -2W -3W +1W +2W +3W
Monate: 1M, 3M, 6M -1M -3M -6M +1M +3M +6M
Jahre:    1J, 3J, 5J, 10J -1J -3J -5J -10J +1J +3J +5J +10J
Nutze für die Darstellung ... ?
Originaldaten oder Mittelwerte auf ...
Stundenbasis Tagesbasis Wochenbasis
Monatsbasis Jahresbasis      Datenbasis: Original-Daten
Darstellen als:
Statistik (Auto) Statistik J:M      Darstellung:
Zur Graphik,    zurück zur Übersicht aller Sensoren.
 
Tabellarische Datenbersicht: ?
 
Sensor: Nr:Datum:Temp:Feuchte:Taupunkt:
Aussen-T/F 1 02-08-2018 00:00:00 18.4 C 94 % 17.42 C
2 02-08-2018 00:05:00 18.3 C 94 % 17.32 C
3 02-08-2018 00:10:00 18.3 C 94 % 17.32 C
4 02-08-2018 00:15:00 18.3 C 94 % 17.32 C
5 02-08-2018 00:20:00 18.2 C 94 % 17.22 C
6 02-08-2018 00:25:00 18.2 C 94 % 17.22 C
7 02-08-2018 00:30:00 18.2 C 95 % 17.39 C
8 02-08-2018 00:35:00 18.1 C 94 % 17.12 C
9 02-08-2018 00:40:00 18.1 C 94 % 17.12 C
10 02-08-2018 00:45:00 18 C 94 % 17.02 C
11 02-08-2018 00:50:00 18 C 94 % 17.02 C
12 02-08-2018 00:55:00 17.9 C 95 % 17.09 C
13 02-08-2018 01:00:00 17.9 C 95 % 17.09 C
14 02-08-2018 01:05:00 17.9 C 95 % 17.09 C
15 02-08-2018 01:10:00 17.8 C 95 % 16.99 C
16 02-08-2018 01:15:00 17.8 C 95 % 16.99 C
17 02-08-2018 01:20:00 17.7 C 94 % 16.72 C
18 02-08-2018 01:25:00 17.7 C 95 % 16.89 C
19 02-08-2018 01:30:00 17.7 C 95 % 16.89 C
20 02-08-2018 01:35:00 17.7 C 95 % 16.89 C
21 02-08-2018 01:40:00 17.7 C 95 % 16.89 C
22 02-08-2018 01:45:00 17.6 C 95 % 16.79 C
23 02-08-2018 01:50:00 17.6 C 95 % 16.79 C
24 02-08-2018 01:55:00 17.7 C 95 % 16.89 C
25 02-08-2018 02:00:00 17.8 C 95 % 16.99 C
Sensor: Nr:Datum:Temp:Feuchte:Taupunkt:
Aussen-T/F 26 02-08-2018 02:05:00 17.9 C 96 % 17.25 C
27 02-08-2018 02:10:00 18.1 C 96 % 17.45 C
28 02-08-2018 02:15:00 18.2 C 96 % 17.55 C
29 02-08-2018 02:20:00 18.2 C 96 % 17.55 C
30 02-08-2018 02:25:00 18.2 C 95 % 17.39 C
31 02-08-2018 02:30:00 18.2 C 95 % 17.39 C
32 02-08-2018 02:35:00 18.1 C 95 % 17.29 C
33 02-08-2018 02:40:00 17.9 C 95 % 17.09 C
34 02-08-2018 02:45:00 17.8 C 95 % 16.99 C
35 02-08-2018 02:50:00 17.8 C 95 % 16.99 C
36 02-08-2018 02:55:00 18 C 96 % 17.35 C
37 02-08-2018 03:00:00 18 C 96 % 17.35 C
38 02-08-2018 03:05:00 17.9 C 96 % 17.25 C
39 02-08-2018 03:10:00 17.8 C 95 % 16.99 C
40 02-08-2018 03:15:00 17.8 C 95 % 16.99 C
41 02-08-2018 03:20:00 17.9 C 95 % 17.09 C
42 02-08-2018 03:25:00 18 C 96 % 17.35 C
43 02-08-2018 03:30:00 18.1 C 96 % 17.45 C
44 02-08-2018 03:35:00 18.2 C 96 % 17.55 C
45 02-08-2018 03:40:00 18.2 C 96 % 17.55 C
46 02-08-2018 03:45:00 18.2 C 96 % 17.55 C
47 02-08-2018 03:50:00 18.2 C 96 % 17.55 C
48 02-08-2018 03:55:00 18.2 C 96 % 17.55 C
49 02-08-2018 04:00:00 18.1 C 96 % 17.45 C
50 02-08-2018 04:05:00 18.1 C 96 % 17.45 C
Sensor: Nr:Datum:Temp:Feuchte:Taupunkt:
Aussen-T/F 51 02-08-2018 04:10:00 18.1 C 96 % 17.45 C
52 02-08-2018 04:15:00 18.1 C 96 % 17.45 C
53 02-08-2018 04:20:00 18.1 C 96 % 17.45 C
54 02-08-2018 04:25:00 18 C 96 % 17.35 C
55 02-08-2018 04:30:00 17.9 C 96 % 17.25 C
56 02-08-2018 04:35:00 17.9 C 96 % 17.25 C
57 02-08-2018 04:40:00 17.9 C 96 % 17.25 C
58 02-08-2018 04:45:00 17.9 C 96 % 17.25 C
59 02-08-2018 04:50:00 17.9 C 96 % 17.25 C
60 02-08-2018 04:55:00 17.9 C 96 % 17.25 C
61 02-08-2018 05:00:00 17.9 C 96 % 17.25 C
62 02-08-2018 05:05:00 17.9 C 96 % 17.25 C
63 02-08-2018 05:10:00 17.9 C 96 % 17.25 C
64 02-08-2018 05:15:00 17.8 C 96 % 17.15 C
65 02-08-2018 05:20:00 17.7 C 96 % 17.05 C
66 02-08-2018 05:25:00 17.7 C 96 % 17.05 C
67 02-08-2018 05:30:00 17.6 C 96 % 16.95 C
68 02-08-2018 05:35:00 17.5 C 95 % 16.69 C
69 02-08-2018 05:40:00 17.4 C 96 % 16.76 C
70 02-08-2018 05:45:00 17.4 C 96 % 16.76 C
71 02-08-2018 05:50:00 17.4 C 96 % 16.76 C
72 02-08-2018 05:55:00 17.4 C 96 % 16.76 C
73 02-08-2018 06:00:00 17.5 C 96 % 16.85 C
74 02-08-2018 06:05:00 17.5 C 96 % 16.85 C
75 02-08-2018 06:10:00 17.5 C 96 % 16.85 C
Sensor: Nr:Datum:Temp:Feuchte:Taupunkt:
Aussen-T/F 76 02-08-2018 06:15:00 17.5 C 96 % 16.85 C
77 02-08-2018 06:20:00 17.5 C 96 % 16.85 C
78 02-08-2018 06:25:00 17.5 C 96 % 16.85 C
79 02-08-2018 06:30:00 17.5 C 96 % 16.85 C
80 02-08-2018 06:35:00 17.4 C 96 % 16.76 C
81 02-08-2018 06:40:00 17.4 C 96 % 16.76 C
82 02-08-2018 06:45:00 17.4 C 95 % 16.59 C
83 02-08-2018 06:50:00 17.4 C 95 % 16.59 C
84 02-08-2018 06:55:00 17.4 C 95 % 16.59 C
85 02-08-2018 07:00:00 17.5 C 95 % 16.69 C
86 02-08-2018 07:05:00 17.5 C 95 % 16.69 C
87 02-08-2018 07:10:00 17.6 C 95 % 16.79 C
88 02-08-2018 07:15:00 17.6 C 95 % 16.79 C
89 02-08-2018 07:20:00 17.6 C 95 % 16.79 C
90 02-08-2018 07:25:00 17.6 C 95 % 16.79 C
91 02-08-2018 07:30:00 17.6 C 95 % 16.79 C
92 02-08-2018 07:35:00 17.6 C 95 % 16.79 C
93 02-08-2018 07:40:00 17.6 C 95 % 16.79 C
94 02-08-2018 07:45:00 17.6 C 95 % 16.79 C
95 02-08-2018 07:50:00 17.6 C 95 % 16.79 C
96 02-08-2018 07:55:00 17.7 C 95 % 16.89 C
97 02-08-2018 08:00:00 17.7 C 95 % 16.89 C
98 02-08-2018 08:05:00 17.7 C 95 % 16.89 C
99 02-08-2018 08:10:00 17.7 C 95 % 16.89 C
100 02-08-2018 08:15:00 17.7 C 95 % 16.89 C
Sensor: Nr:Datum:Temp:Feuchte:Taupunkt:
Aussen-T/F 101 02-08-2018 08:20:00 17.8 C 95 % 16.99 C
102 02-08-2018 08:25:00 17.8 C 95 % 16.99 C
103 02-08-2018 08:30:00 17.8 C 95 % 16.99 C
104 02-08-2018 08:35:00 17.8 C 95 % 16.99 C
105 02-08-2018 08:40:00 17.8 C 95 % 16.99 C
106 02-08-2018 08:45:00 17.9 C 95 % 17.09 C
107 02-08-2018 08:50:00 18 C 95 % 17.19 C
108 02-08-2018 08:55:00 18 C 95 % 17.19 C
109 02-08-2018 09:00:00 18 C 95 % 17.19 C
110 02-08-2018 09:05:00 18.1 C 95 % 17.29 C
111 02-08-2018 09:10:00 18.1 C 95 % 17.29 C
112 02-08-2018 09:15:00 18.3 C 95 % 17.48 C
113 02-08-2018 09:20:00 18.3 C 95 % 17.48 C
114 02-08-2018 09:25:00 18.4 C 95 % 17.58 C
115 02-08-2018 09:30:00 18.5 C 95 % 17.68 C
116 02-08-2018 09:35:00 18.6 C 95 % 17.78 C
117 02-08-2018 09:40:00 18.7 C 95 % 17.88 C
118 02-08-2018 09:45:00 18.9 C 95 % 18.08 C
119 02-08-2018 09:50:00 18.9 C 95 % 18.08 C
120 02-08-2018 09:55:00 18.8 C 95 % 17.98 C
121 02-08-2018 10:00:00 18.8 C 94 % 17.81 C
122 02-08-2018 10:05:00 18.8 C 94 % 17.81 C
123 02-08-2018 10:10:00 18.8 C 94 % 17.81 C
124 02-08-2018 10:15:00 18.9 C 95 % 18.08 C
125 02-08-2018 10:20:00 19.1 C 94 % 18.11 C
Sensor: Nr:Datum:Temp:Feuchte:Taupunkt:
Aussen-T/F 126 02-08-2018 10:25:00 19.2 C 94 % 18.21 C
127 02-08-2018 10:30:00 19.3 C 94 % 18.31 C
128 02-08-2018 10:35:00 19.4 C 94 % 18.41 C
129 02-08-2018 10:40:00 19.6 C 93 % 18.44 C
130 02-08-2018 10:45:00 19.7 C 93 % 18.54 C
131 02-08-2018 10:50:00 19.8 C 92 % 18.46 C
132 02-08-2018 10:55:00 20.1 C 92 % 18.76 C
133 02-08-2018 11:00:00 20.3 C 91 % 18.78 C
134 02-08-2018 11:05:00 20.6 C 90 % 18.9 C
135 02-08-2018 11:10:00 20.7 C 90 % 19 C
136 02-08-2018 11:15:00 20.9 C 90 % 19.2 C
137 02-08-2018 11:20:00 21.1 C 90 % 19.39 C
138 02-08-2018 11:25:00 21.2 C 89 % 19.31 C
139 02-08-2018 11:30:00 21.4 C 89 % 19.51 C
140 02-08-2018 11:35:00 21.6 C 89 % 19.71 C
141 02-08-2018 11:40:00 21.8 C 87 % 19.54 C
142 02-08-2018 11:45:00 22.1 C 87 % 19.83 C
143 02-08-2018 11:50:00 22.2 C 87 % 19.93 C
144 02-08-2018 11:55:00 22.3 C 84 % 19.46 C
145 02-08-2018 12:00:00 22.5 C 85 % 19.85 C
146 02-08-2018 12:05:00 22.7 C 85 % 20.05 C
147 02-08-2018 12:10:00 22.9 C 86 % 20.43 C
148 02-08-2018 12:15:00 23 C 81 % 19.56 C
149 02-08-2018 12:20:00 23.3 C 79 % 19.45 C
150 02-08-2018 12:25:00 23.7 C 81 % 20.24 C
Sensor: Nr:Datum:Temp:Feuchte:Taupunkt:
Aussen-T/F 151 02-08-2018 12:30:00 24 C 78 % 19.92 C
152 02-08-2018 12:35:00 24.4 C 73 % 19.24 C
153 02-08-2018 12:40:00 24.8 C 71 % 19.18 C
154 02-08-2018 12:45:00 25.2 C 70 % 19.34 C
155 02-08-2018 12:50:00 25.5 C 69 % 19.39 C
156 02-08-2018 12:55:00 25.8 C 70 % 19.91 C
157 02-08-2018 13:00:00 25.9 C 72 % 20.46 C
158 02-08-2018 13:05:00 26.1 C 69 % 19.96 C
159 02-08-2018 13:10:00 26.2 C 68 % 19.82 C
160 02-08-2018 13:15:00 26.3 C 68 % 19.92 C
161 02-08-2018 13:20:00 26.7 C 67 % 20.06 C
162 02-08-2018 13:25:00 26.8 C 66 % 19.91 C
163 02-08-2018 13:30:00 26.9 C 66 % 20.01 C
164 02-08-2018 13:35:00 27.1 C 64 % 19.7 C
165 02-08-2018 13:40:00 27.2 C 65 % 20.04 C
166 02-08-2018 13:45:00 27.4 C 64 % 19.98 C
167 02-08-2018 13:50:00 27.6 C 62 % 19.66 C
168 02-08-2018 13:55:00 27.7 C 63 % 20.01 C
169 02-08-2018 14:00:00 27.9 C 63 % 20.2 C
170 02-08-2018 14:05:00 28.1 C 62 % 20.13 C
171 02-08-2018 14:10:00 28.3 C 61 % 20.06 C
172 02-08-2018 14:15:00 28.3 C 61 % 20.06 C
173 02-08-2018 14:20:00 28.4 C 60 % 19.88 C
174 02-08-2018 14:25:00 28.5 C 61 % 20.24 C
175 02-08-2018 14:30:00 28.6 C 59 % 19.8 C
Sensor: Nr:Datum:Temp:Feuchte:Taupunkt:
Aussen-T/F 176 02-08-2018 14:35:00 28.7 C 61 % 20.43 C
177 02-08-2018 14:40:00 28.9 C 59 % 20.08 C
178 02-08-2018 14:45:00 29.1 C 57 % 19.71 C
179 02-08-2018 14:50:00 29.2 C 58 % 20.08 C
180 02-08-2018 14:55:00 29.5 C 57 % 20.08 C
181 02-08-2018 15:00:00 29.7 C 57 % 20.27 C
182 02-08-2018 15:05:00 29.7 C 57 % 20.27 C
183 02-08-2018 15:10:00 29.8 C 57 % 20.36 C
184 02-08-2018 15:15:00 29.9 C 55 % 19.88 C
185 02-08-2018 15:20:00 30.1 C 55 % 20.06 C
186 02-08-2018 15:25:00 30.4 C 52 % 19.43 C
187 02-08-2018 15:30:00 30.7 C 51 % 19.4 C
188 02-08-2018 15:35:00 31.1 C 51 % 19.76 C
189 02-08-2018 15:40:00 31.4 C 49 % 19.39 C
190 02-08-2018 15:45:00 31.8 C 49 % 19.76 C
191 02-08-2018 15:50:00 32.1 C 46 % 19.02 C
192 02-08-2018 15:55:00 32.2 C 45 % 18.75 C
193 02-08-2018 16:00:00 32.3 C 47 % 19.54 C
194 02-08-2018 16:05:00 32.5 C 46 % 19.38 C
195 02-08-2018 16:10:00 32.7 C 44 % 18.84 C
196 02-08-2018 16:15:00 32.8 C 40 % 17.42 C
197 02-08-2018 16:20:00 33.1 C 42 % 18.46 C
198 02-08-2018 16:25:00 33.3 C 40 % 17.86 C
199 02-08-2018 16:30:00 33.3 C 40 % 17.86 C
200 02-08-2018 16:35:00 33.3 C 42 % 18.64 C
Sensor: Nr:Datum:Temp:Feuchte:Taupunkt:
Aussen-T/F 201 02-08-2018 16:40:00 33.4 C 40 % 17.95 C
202 02-08-2018 16:45:00 33.6 C 40 % 18.13 C
203 02-08-2018 16:50:00 33.6 C 39 % 17.73 C
204 02-08-2018 16:55:00 33.8 C 40 % 18.31 C
205 02-08-2018 17:00:00 34.1 C 40 % 18.57 C
206 02-08-2018 17:05:00 34.3 C 38 % 17.93 C
207 02-08-2018 17:10:00 34.4 C 39 % 18.43 C
208 02-08-2018 17:15:00 34.3 C 40 % 18.75 C
209 02-08-2018 17:20:00 34.2 C 39 % 18.26 C
210 02-08-2018 17:25:00 34.1 C 39 % 18.17 C
211 02-08-2018 17:30:00 33.9 C 40 % 18.4 C
212 02-08-2018 17:35:00 34 C 37 % 17.25 C
213 02-08-2018 17:40:00 34.1 C 38 % 17.76 C
214 02-08-2018 17:45:00 34.3 C 38 % 17.93 C
215 02-08-2018 17:50:00 34.3 C 39 % 18.35 C
216 02-08-2018 17:55:00 34.5 C 37 % 17.69 C
217 02-08-2018 18:00:00 34.6 C 37 % 17.77 C
218 02-08-2018 18:05:00 34.5 C 36 % 17.25 C
219 02-08-2018 18:10:00 34.3 C 36 % 17.08 C
220 02-08-2018 18:15:00 34.2 C 37 % 17.42 C
221 02-08-2018 18:20:00 34.2 C 36 % 16.99 C
222 02-08-2018 18:25:00 34.3 C 37 % 17.51 C
223 02-08-2018 18:30:00 34.4 C 36 % 17.16 C
224 02-08-2018 18:35:00 34.4 C 37 % 17.6 C
225 02-08-2018 18:40:00 34.3 C 37 % 17.51 C
Sensor: Nr:Datum:Temp:Feuchte:Taupunkt:
Aussen-T/F 226 02-08-2018 18:45:00 34.3 C 37 % 17.51 C
227 02-08-2018 18:50:00 34.2 C 35 % 16.54 C
228 02-08-2018 18:55:00 34.1 C 36 % 16.9 C
229 02-08-2018 19:00:00 34.2 C 35 % 16.54 C
230 02-08-2018 19:05:00 34.2 C 36 % 16.99 C
231 02-08-2018 19:10:00 34.2 C 36 % 16.99 C
232 02-08-2018 19:15:00 34 C 37 % 17.25 C
233 02-08-2018 19:20:00 33.7 C 37 % 16.98 C
234 02-08-2018 19:25:00 33.4 C 36 % 16.29 C
235 02-08-2018 19:30:00 33.2 C 36 % 16.11 C
236 02-08-2018 19:35:00 32.9 C 36 % 15.85 C
237 02-08-2018 19:40:00 32.8 C 38 % 16.61 C
238 02-08-2018 19:45:00 32.7 C 36 % 15.67 C
239 02-08-2018 19:50:00 32.6 C 37 % 16.01 C
240 02-08-2018 19:55:00 32.4 C 38 % 16.25 C
241 02-08-2018 20:00:00 32.3 C 40 % 16.97 C
242 02-08-2018 20:05:00 32.1 C 38 % 15.99 C
243 02-08-2018 20:10:00 32 C 39 % 16.31 C
244 02-08-2018 20:15:00 31.9 C 44 % 18.12 C
245 02-08-2018 20:20:00 31.7 C 44 % 17.94 C
246 02-08-2018 20:25:00 31.3 C 45 % 17.94 C
247 02-08-2018 20:30:00 30.9 C 43 % 16.86 C
248 02-08-2018 20:35:00 30.4 C 49 % 18.48 C
249 02-08-2018 20:40:00 29.9 C 50 % 18.35 C
250 02-08-2018 20:45:00 29.4 C 53 % 18.82 C
Sensor: Nr:Datum:Temp:Feuchte:Taupunkt:
Aussen-T/F 251 02-08-2018 20:50:00 28.8 C 56 % 19.14 C
252 02-08-2018 20:55:00 28.2 C 58 % 19.15 C
253 02-08-2018 21:00:00 27.7 C 58 % 18.68 C
254 02-08-2018 21:05:00 27.2 C 58 % 18.22 C
255 02-08-2018 21:10:00 26.8 C 58 % 17.84 C
256 02-08-2018 21:15:00 26.5 C 60 % 18.1 C
257 02-08-2018 21:20:00 26.2 C 60 % 17.82 C
258 02-08-2018 21:25:00 25.9 C 61 % 17.8 C
259 02-08-2018 21:30:00 25.7 C 62 % 17.87 C
260 02-08-2018 21:35:00 25.6 C 61 % 17.52 C
261 02-08-2018 21:40:00 25.4 C 62 % 17.59 C
262 02-08-2018 21:45:00 25.3 C 61 % 17.24 C
263 02-08-2018 21:50:00 25.2 C 61 % 17.14 C
264 02-08-2018 21:55:00 25.1 C 62 % 17.31 C
265 02-08-2018 22:00:00 24.9 C 63 % 17.37 C
266 02-08-2018 22:05:00 24.8 C 63 % 17.28 C
267 02-08-2018 22:10:00 24.6 C 63 % 17.09 C
268 02-08-2018 22:15:00 24.5 C 63 % 16.99 C
269 02-08-2018 22:20:00 24.4 C 63 % 16.9 C
270 02-08-2018 22:25:00 24.3 C 66 % 17.54 C
271 02-08-2018 22:30:00 24.1 C 64 % 16.86 C
272 02-08-2018 22:35:00 24 C 65 % 17.01 C
273 02-08-2018 22:40:00 23.9 C 66 % 17.16 C
274 02-08-2018 22:45:00 23.9 C 67 % 17.4 C
275 02-08-2018 22:50:00 23.8 C 67 % 17.3 C
Sensor: Nr:Datum:Temp:Feuchte:Taupunkt:
Aussen-T/F 276 02-08-2018 22:55:00 23.8 C 67 % 17.3 C
277 02-08-2018 23:00:00 23.8 C 67 % 17.3 C
278 02-08-2018 23:05:00 23.8 C 65 % 16.83 C
279 02-08-2018 23:10:00 23.9 C 65 % 16.92 C
280 02-08-2018 23:15:00 23.9 C 66 % 17.16 C
281 02-08-2018 23:20:00 23.9 C 66 % 17.16 C
282 02-08-2018 23:25:00 23.9 C 65 % 16.92 C
283 02-08-2018 23:30:00 23.8 C 66 % 17.07 C
284 02-08-2018 23:35:00 23.8 C 67 % 17.3 C
285 02-08-2018 23:40:00 23.7 C 67 % 17.21 C
286 02-08-2018 23:45:00 23.6 C 66 % 16.88 C
287 02-08-2018 23:50:00 23.4 C 65 % 16.45 C
288 02-08-2018 23:55:00 23.4 C 67 % 16.92 C
289 03-08-2018 00:00:00 23.3 C 68 % 17.06 C
290 03-08-2018 00:05:00 23.2 C 68 % 16.97 C
291 03-08-2018 00:10:00 23.1 C 68 % 16.87 C
292 03-08-2018 00:15:00 23.1 C 69 % 17.1 C
293 03-08-2018 00:20:00 22.9 C 69 % 16.91 C
294 03-08-2018 00:25:00 22.8 C 68 % 16.59 C
295 03-08-2018 00:30:00 22.8 C 70 % 17.04 C
296 03-08-2018 00:35:00 22.7 C 70 % 16.95 C
297 03-08-2018 00:40:00 22.6 C 69 % 16.62 C
298 03-08-2018 00:45:00 22.6 C 70 % 16.85 C
299 03-08-2018 00:50:00 22.4 C 71 % 16.88 C
300 03-08-2018 00:55:00 22.4 C 71 % 16.88 C
Sensor: Nr:Datum:Temp:Feuchte:Taupunkt:
Aussen-T/F 301 03-08-2018 01:00:00 22.3 C 71 % 16.79 C
302 03-08-2018 01:05:00 22.3 C 72 % 17.01 C
303 03-08-2018 01:10:00 22.3 C 71 % 16.79 C
304 03-08-2018 01:15:00 22.2 C 72 % 16.91 C
305 03-08-2018 01:20:00 22.2 C 71 % 16.69 C
306 03-08-2018 01:25:00 22.1 C 73 % 17.03 C
307 03-08-2018 01:30:00 22 C 73 % 16.94 C
308 03-08-2018 01:35:00 21.9 C 73 % 16.84 C
309 03-08-2018 01:40:00 21.8 C 73 % 16.75 C
310 03-08-2018 01:45:00 21.7 C 74 % 16.86 C
311 03-08-2018 01:50:00 21.6 C 74 % 16.77 C
312 03-08-2018 01:55:00 21.5 C 75 % 16.88 C
313 03-08-2018 02:00:00 21.4 C 75 % 16.79 C
314 03-08-2018 02:05:00 21.3 C 76 % 16.9 C
315 03-08-2018 02:10:00 21.2 C 76 % 16.8 C
316 03-08-2018 02:15:00 21.2 C 76 % 16.8 C
317 03-08-2018 02:20:00 21.1 C 76 % 16.7 C
318 03-08-2018 02:25:00 20.9 C 76 % 16.51 C
319 03-08-2018 02:30:00 20.9 C 76 % 16.51 C
320 03-08-2018 02:35:00 20.8 C 76 % 16.41 C
321 03-08-2018 02:40:00 20.8 C 76 % 16.41 C
322 03-08-2018 02:45:00 20.8 C 77 % 16.62 C
323 03-08-2018 02:50:00 20.8 C 76 % 16.41 C
324 03-08-2018 02:55:00 20.7 C 77 % 16.52 C
325 03-08-2018 03:00:00 20.7 C 78 % 16.73 C
Sensor: Nr:Datum:Temp:Feuchte:Taupunkt:
Aussen-T/F 326 03-08-2018 03:05:00 20.5 C 78 % 16.53 C
327 03-08-2018 03:10:00 20.4 C 78 % 16.44 C
328 03-08-2018 03:15:00 20.3 C 79 % 16.54 C
329 03-08-2018 03:20:00 20.2 C 78 % 16.24 C
330 03-08-2018 03:25:00 20.1 C 79 % 16.34 C
331 03-08-2018 03:30:00 20 C 79 % 16.25 C
332 03-08-2018 03:35:00 19.9 C 79 % 16.15 C
333 03-08-2018 03:40:00 19.9 C 80 % 16.35 C
334 03-08-2018 03:45:00 19.8 C 80 % 16.25 C
335 03-08-2018 03:50:00 19.8 C 80 % 16.25 C
336 03-08-2018 03:55:00 19.7 C 80 % 16.15 C
337 03-08-2018 04:00:00 19.7 C 80 % 16.15 C
338 03-08-2018 04:05:00 19.6 C 81 % 16.25 C
339 03-08-2018 04:10:00 19.5 C 81 % 16.15 C
340 03-08-2018 04:15:00 19.4 C 81 % 16.06 C
341 03-08-2018 04:20:00 19.4 C 81 % 16.06 C
342 03-08-2018 04:25:00 19.4 C 81 % 16.06 C
343 03-08-2018 04:30:00 19.3 C 81 % 15.96 C
344 03-08-2018 04:35:00 19.3 C 82 % 16.15 C
345 03-08-2018 04:40:00 19.3 C 81 % 15.96 C
346 03-08-2018 04:45:00 19.3 C 81 % 15.96 C
347 03-08-2018 04:50:00 19.3 C 81 % 15.96 C
348 03-08-2018 04:55:00 19.3 C 81 % 15.96 C
349 03-08-2018 05:00:00 19.2 C 81 % 15.86 C
350 03-08-2018 05:05:00 19.2 C 82 % 16.05 C
Sensor: Nr:Datum:Temp:Feuchte:Taupunkt:
Aussen-T/F 351 03-08-2018 05:10:00 19.1 C 82 % 15.96 C
352 03-08-2018 05:15:00 18.9 C 82 % 15.76 C
353 03-08-2018 05:20:00 18.9 C 82 % 15.76 C
354 03-08-2018 05:25:00 18.9 C 83 % 15.95 C
355 03-08-2018 05:30:00 18.8 C 83 % 15.85 C
356 03-08-2018 05:35:00 18.8 C 83 % 15.85 C
357 03-08-2018 05:40:00 18.7 C 83 % 15.75 C
358 03-08-2018 05:45:00 18.7 C 84 % 15.94 C
359 03-08-2018 05:50:00 18.6 C 83 % 15.66 C
360 03-08-2018 05:55:00 18.6 C 83 % 15.66 C
361 03-08-2018 06:00:00 18.5 C 84 % 15.75 C
362 03-08-2018 06:05:00 18.4 C 84 % 15.65 C
363 03-08-2018 06:10:00 18.4 C 84 % 15.65 C
364 03-08-2018 06:15:00 18.4 C 85 % 15.83 C
365 03-08-2018 06:20:00 18.3 C 84 % 15.55 C
366 03-08-2018 06:25:00 18.3 C 85 % 15.74 C
367 03-08-2018 06:30:00 18.3 C 85 % 15.74 C
368 03-08-2018 06:35:00 18.3 C 85 % 15.74 C
369 03-08-2018 06:40:00 18.3 C 85 % 15.74 C
370 03-08-2018 06:45:00 18.3 C 85 % 15.74 C
371 03-08-2018 06:50:00 18.3 C 85 % 15.74 C
372 03-08-2018 06:55:00 18.3 C 85 % 15.74 C
373 03-08-2018 07:00:00 18.3 C 86 % 15.92 C
374 03-08-2018 07:05:00 18.3 C 86 % 15.92 C
375 03-08-2018 07:10:00 18.3 C 86 % 15.92 C
Sensor: Nr:Datum:Temp:Feuchte:Taupunkt:
Aussen-T/F 376 03-08-2018 07:15:00 18.4 C 86 % 16.02 C
377 03-08-2018 07:20:00 18.4 C 86 % 16.02 C
378 03-08-2018 07:25:00 18.5 C 86 % 16.11 C
379 03-08-2018 07:30:00 18.5 C 87 % 16.3 C
380 03-08-2018 07:35:00 18.6 C 87 % 16.39 C
381 03-08-2018 07:40:00 18.6 C 87 % 16.39 C
382 03-08-2018 07:45:00 18.7 C 87 % 16.49 C
383 03-08-2018 07:50:00 18.8 C 87 % 16.59 C
384 03-08-2018 07:55:00 18.8 C 87 % 16.59 C
385 03-08-2018 08:00:00 18.9 C 87 % 16.69 C
386 03-08-2018 08:05:00 19 C 86 % 16.6 C
387 03-08-2018 08:10:00 19.2 C 86 % 16.8 C
388 03-08-2018 08:15:00 19.3 C 86 % 16.9 C
389 03-08-2018 08:20:00 19.4 C 85 % 16.81 C
390 03-08-2018 08:25:00 19.4 C 85 % 16.81 C
391 03-08-2018 08:30:00 19.6 C 86 % 17.19 C
392 03-08-2018 08:35:00 19.7 C 85 % 17.11 C
393 03-08-2018 08:40:00 19.8 C 86 % 17.39 C
394 03-08-2018 08:45:00 19.9 C 85 % 17.3 C
395 03-08-2018 08:50:00 20.1 C 84 % 17.31 C
396 03-08-2018 08:55:00 20.2 C 85 % 17.6 C
397 03-08-2018 09:00:00 20.3 C 85 % 17.7 C
398 03-08-2018 09:05:00 20.4 C 84 % 17.61 C
399 03-08-2018 09:10:00 20.6 C 84 % 17.8 C
400 03-08-2018 09:15:00 20.7 C 84 % 17.9 C
Sensor: Nr:Datum:Temp:Feuchte:Taupunkt:
Aussen-T/F 401 03-08-2018 09:20:00 20.8 C 84 % 18 C
402 03-08-2018 09:25:00 20.9 C 84 % 18.09 C
403 03-08-2018 09:30:00 21 C 83 % 18 C
404 03-08-2018 09:35:00 21.1 C 83 % 18.1 C
405 03-08-2018 09:40:00 21.3 C 81 % 17.91 C
406 03-08-2018 09:45:00 21.5 C 81 % 18.1 C
407 03-08-2018 09:50:00 21.7 C 79 % 17.9 C
408 03-08-2018 09:55:00 21.9 C 80 % 18.29 C
409 03-08-2018 10:00:00 22.2 C 79 % 18.38 C
410 03-08-2018 10:05:00 22.4 C 78 % 18.37 C
411 03-08-2018 10:10:00 22.6 C 78 % 18.57 C
412 03-08-2018 10:15:00 22.8 C 79 % 18.97 C
413 03-08-2018 10:20:00 22.9 C 76 % 18.44 C
414 03-08-2018 10:25:00 23.2 C 77 % 18.94 C
415 03-08-2018 10:30:00 23.4 C 76 % 18.93 C
416 03-08-2018 10:35:00 23.7 C 75 % 19 C
417 03-08-2018 10:40:00 23.9 C 75 % 19.2 C
418 03-08-2018 10:45:00 24.3 C 75 % 19.58 C
419 03-08-2018 10:50:00 24.6 C 73 % 19.44 C
420 03-08-2018 10:55:00 24.8 C 73 % 19.63 C
421 03-08-2018 11:00:00 25 C 71 % 19.37 C
422 03-08-2018 11:05:00 25.2 C 69 % 19.11 C
423 03-08-2018 11:10:00 25.7 C 67 % 19.11 C
424 03-08-2018 11:15:00 26 C 66 % 19.15 C
425 03-08-2018 11:20:00 26.3 C 69 % 20.16 C
Sensor: Nr:Datum:Temp:Feuchte:Taupunkt:
Aussen-T/F 426 03-08-2018 11:25:00 26.4 C 66 % 19.53 C
427 03-08-2018 11:30:00 26.8 C 63 % 19.16 C
428 03-08-2018 11:35:00 27 C 64 % 19.61 C
429 03-08-2018 11:40:00 27.2 C 63 % 19.54 C
430 03-08-2018 11:45:00 27.3 C 63 % 19.63 C
431 03-08-2018 11:50:00 27.4 C 62 % 19.47 C
432 03-08-2018 11:55:00 27.6 C 62 % 19.66 C
433 03-08-2018 12:00:00 27.8 C 61 % 19.59 C
434 03-08-2018 12:05:00 28 C 59 % 19.24 C
435 03-08-2018 12:10:00 28.3 C 59 % 19.52 C
436 03-08-2018 12:15:00 28.6 C 59 % 19.8 C
437 03-08-2018 12:20:00 28.8 C 58 % 19.71 C
438 03-08-2018 12:25:00 29.1 C 57 % 19.71 C
439 03-08-2018 12:30:00 29.3 C 55 % 19.32 C
440 03-08-2018 12:35:00 29.4 C 58 % 20.27 C
441 03-08-2018 12:40:00 29.5 C 55 % 19.5 C
442 03-08-2018 12:45:00 29.7 C 52 % 18.79 C
443 03-08-2018 12:50:00 30.1 C 50 % 18.53 C
444 03-08-2018 12:55:00 30.3 C 50 % 18.71 C
445 03-08-2018 13:00:00 30.5 C 49 % 18.57 C
446 03-08-2018 13:05:00 30.8 C 47 % 18.18 C
447 03-08-2018 13:10:00 30.9 C 48 % 18.61 C
448 03-08-2018 13:15:00 31.1 C 47 % 18.45 C
449 03-08-2018 13:20:00 31.3 C 47 % 18.63 C
450 03-08-2018 13:25:00 31.4 C 46 % 18.38 C
Sensor: Nr:Datum:Temp:Feuchte:Taupunkt:
Aussen-T/F 451 03-08-2018 13:30:00 31.6 C 46 % 18.56 C
452 03-08-2018 13:35:00 31.7 C 45 % 18.3 C
453 03-08-2018 13:40:00 31.6 C 44 % 17.85 C
454 03-08-2018 13:45:00 31.6 C 44 % 17.85 C
455 03-08-2018 13:50:00 31.7 C 43 % 17.58 C
456 03-08-2018 13:55:00 31.9 C 43 % 17.76 C
457 03-08-2018 14:00:00 32.1 C 43 % 17.94 C
458 03-08-2018 14:05:00 32.3 C 43 % 18.12 C
459 03-08-2018 14:10:00 32.3 C 41 % 17.36 C
460 03-08-2018 14:15:00 32.4 C 43 % 18.21 C
461 03-08-2018 14:20:00 32.6 C 41 % 17.63 C
462 03-08-2018 14:25:00 32.6 C 40 % 17.24 C
463 03-08-2018 14:30:00 32.6 C 40 % 17.24 C
464 03-08-2018 14:35:00 32.7 C 41 % 17.72 C
465 03-08-2018 14:40:00 32.9 C 39 % 17.11 C
466 03-08-2018 14:45:00 33 C 40 % 17.59 C
467 03-08-2018 14:50:00 33.2 C 38 % 16.96 C
468 03-08-2018 14:55:00 33.2 C 37 % 16.54 C
469 03-08-2018 15:00:00 33.3 C 38 % 17.05 C
470 03-08-2018 15:05:00 33.4 C 38 % 17.14 C
471 03-08-2018 15:10:00 33.6 C 38 % 17.31 C
472 03-08-2018 15:15:00 33.8 C 37 % 17.07 C
473 03-08-2018 15:20:00 33.9 C 38 % 17.58 C
474 03-08-2018 15:25:00 34.1 C 36 % 16.9 C
475 03-08-2018 15:30:00 34.4 C 37 % 17.6 C
Sensor: Nr:Datum:Temp:Feuchte:Taupunkt:
Aussen-T/F 476 03-08-2018 15:35:00 34.8 C 37 % 17.95 C
477 03-08-2018 15:40:00 35.2 C 34 % 16.96 C
478 03-08-2018 15:45:00 35.4 C 35 % 17.59 C
479 03-08-2018 15:50:00 35.4 C 34 % 17.13 C
480 03-08-2018 15:55:00 35.4 C 34 % 17.13 C
481 03-08-2018 16:00:00 35.4 C 34 % 17.13 C
482 03-08-2018 16:05:00 35.7 C 34 % 17.4 C
483 03-08-2018 16:10:00 35.9 C 33 % 17.1 C
484 03-08-2018 16:15:00 35.8 C 32 % 16.53 C
485 03-08-2018 16:20:00 35.6 C 33 % 16.84 C
486 03-08-2018 16:25:00 35.7 C 33 % 16.92 C
487 03-08-2018 16:30:00 36.1 C 33 % 17.27 C
488 03-08-2018 16:35:00 36.2 C 33 % 17.36 C
489 03-08-2018 16:40:00 36.4 C 32 % 17.04 C
490 03-08-2018 16:45:00 36.6 C 32 % 17.22 C
491 03-08-2018 16:50:00 36.8 C 32 % 17.39 C
492 03-08-2018 16:55:00 36.9 C 32 % 17.48 C
493 03-08-2018 17:00:00 37 C 32 % 17.56 C
494 03-08-2018 17:05:00 36.9 C 31 % 16.97 C
495 03-08-2018 17:10:00 36.2 C 32 % 16.87 C
496 03-08-2018 17:15:00 35.5 C 33 % 16.75 C
497 03-08-2018 17:20:00 35.2 C 33 % 16.49 C
498 03-08-2018 17:25:00 35.2 C 33 % 16.49 C
499 03-08-2018 17:30:00 35.6 C 33 % 16.84 C
500 03-08-2018 17:35:00 36 C 31 % 16.2 C
Sensor: Nr:Datum:Temp:Feuchte:Taupunkt:
Aussen-T/F 501 03-08-2018 17:40:00 36.2 C 31 % 16.37 C
502 03-08-2018 17:45:00 35.9 C 32 % 16.61 C
503 03-08-2018 17:50:00 35.9 C 32 % 16.61 C
504 03-08-2018 17:55:00 36.2 C 31 % 16.37 C
505 03-08-2018 18:00:00 36.6 C 30 % 16.2 C
506 03-08-2018 18:05:00 36.3 C 30 % 15.94 C
507 03-08-2018 18:10:00 36.2 C 30 % 15.86 C
508 03-08-2018 18:15:00 36.3 C 31 % 16.46 C
509 03-08-2018 18:20:00 36.4 C 30 % 16.03 C
510 03-08-2018 18:25:00 36.4 C 29 % 15.5 C
511 03-08-2018 18:30:00 36.4 C 30 % 16.03 C
512 03-08-2018 18:35:00 36.7 C 29 % 15.76 C
513 03-08-2018 18:40:00 36.9 C 29 % 15.93 C
514 03-08-2018 18:45:00 37.1 C 28 % 15.55 C
515 03-08-2018 18:50:00 37 C 29 % 16.01 C
516 03-08-2018 18:55:00 37 C 30 % 16.54 C
517 03-08-2018 19:00:00 36.9 C 30 % 16.46 C
518 03-08-2018 19:05:00 36.8 C 29 % 15.84 C
519 03-08-2018 19:10:00 36.6 C 29 % 15.67 C
520 03-08-2018 19:15:00 36.3 C 30 % 15.94 C
521 03-08-2018 19:20:00 36.1 C 29 % 15.24 C
522 03-08-2018 19:25:00 35.8 C 31 % 16.03 C
523 03-08-2018 19:30:00 35.6 C 32 % 16.35 C
524 03-08-2018 19:35:00 35.4 C 31 % 15.68 C
525 03-08-2018 19:40:00 35.2 C 31 % 15.51 C
Sensor: Nr:Datum:Temp:Feuchte:Taupunkt:
Aussen-T/F 526 03-08-2018 19:45:00 35.1 C 34 % 16.87 C
527 03-08-2018 19:50:00 35 C 33 % 16.32 C
528 03-08-2018 19:55:00 34.8 C 33 % 16.14 C
529 03-08-2018 20:00:00 34.7 C 33 % 16.06 C
530 03-08-2018 20:05:00 34.5 C 34 % 16.35 C
531 03-08-2018 20:10:00 34.3 C 39 % 18.35 C
532 03-08-2018 20:15:00 34.1 C 40 % 18.57 C
533 03-08-2018 20:20:00 33.6 C 42 % 18.91 C
534 03-08-2018 20:25:00 33.2 C 43 % 18.93 C
535 03-08-2018 20:30:00 32.6 C 43 % 18.39 C
536 03-08-2018 20:35:00 31.9 C 46 % 18.83 C
537 03-08-2018 20:40:00 31.3 C 47 % 18.63 C
538 03-08-2018 20:45:00 30.8 C 48 % 18.52 C
539 03-08-2018 20:50:00 30.2 C 50 % 18.62 C
540 03-08-2018 20:55:00 29.7 C 50 % 18.16 C
541 03-08-2018 21:00:00 29.3 C 52 % 18.42 C
542 03-08-2018 21:05:00 28.9 C 52 % 18.05 C
543 03-08-2018 21:10:00 28.6 C 53 % 18.08 C
544 03-08-2018 21:15:00 28.3 C 53 % 17.8 C
545 03-08-2018 21:20:00 28.1 C 55 % 18.21 C
546 03-08-2018 21:25:00 27.8 C 56 % 18.22 C
547 03-08-2018 21:30:00 27.6 C 55 % 17.74 C
548 03-08-2018 21:35:00 27.5 C 54 % 17.36 C
549 03-08-2018 21:40:00 27.4 C 55 % 17.56 C
550 03-08-2018 21:45:00 27.3 C 55 % 17.47 C
Sensor: Nr:Datum:Temp:Feuchte:Taupunkt:
Aussen-T/F 551 03-08-2018 21:50:00 27.2 C 55 % 17.37 C
552 03-08-2018 21:55:00 27.1 C 56 % 17.57 C
553 03-08-2018 22:00:00 26.9 C 57 % 17.66 C
554 03-08-2018 22:05:00 26.8 C 56 % 17.29 C
555 03-08-2018 22:10:00 26.7 C 58 % 17.75 C
556 03-08-2018 22:15:00 26.5 C 60 % 18.1 C
557 03-08-2018 22:20:00 26.3 C 61 % 18.18 C
558 03-08-2018 22:25:00 26.1 C 60 % 17.73 C
559 03-08-2018 22:30:00 25.9 C 60 % 17.54 C
560 03-08-2018 22:35:00 25.8 C 60 % 17.45 C
561 03-08-2018 22:40:00 25.7 C 61 % 17.61 C
562 03-08-2018 22:45:00 25.7 C 60 % 17.35 C
563 03-08-2018 22:50:00 25.7 C 59 % 17.09 C
564 03-08-2018 22:55:00 25.8 C 61 % 17.71 C
565 03-08-2018 23:00:00 25.7 C 59 % 17.09 C
566 03-08-2018 23:05:00 25.7 C 60 % 17.35 C
567 03-08-2018 23:10:00 25.6 C 61 % 17.52 C
568 03-08-2018 23:15:00 25.5 C 62 % 17.68 C
569 03-08-2018 23:20:00 25.4 C 61 % 17.33 C
570 03-08-2018 23:25:00 25.3 C 61 % 17.24 C
571 03-08-2018 23:30:00 25.2 C 64 % 17.9 C
572 03-08-2018 23:35:00 25 C 64 % 17.72 C
573 03-08-2018 23:40:00 24.8 C 63 % 17.28 C
574 03-08-2018 23:45:00 24.7 C 65 % 17.68 C
575 03-08-2018 23:50:00 24.5 C 66 % 17.73 C
Sensor: Nr:Datum:Temp:Feuchte:Taupunkt:
Aussen-T/F 576 03-08-2018 23:55:00 24.3 C 65 % 17.3 C
577 04-08-2018 00:00:00 24.2 C 65 % 17.2 C
578 04-08-2018 00:05:00 24.1 C 66 % 17.35 C
579 04-08-2018 00:10:00 23.8 C 65 % 16.83 C
580 04-08-2018 00:15:00 23.7 C 65 % 16.73 C
581 04-08-2018 00:20:00 23.6 C 67 % 17.11 C
582 04-08-2018 00:25:00 23.6 C 68 % 17.35 C
583 04-08-2018 00:30:00 23.6 C 68 % 17.35 C
584 04-08-2018 00:35:00 23.4 C 68 % 17.16 C
585 04-08-2018 00:40:00 23.2 C 68 % 16.97 C
586 04-08-2018 00:45:00 22.9 C 69 % 16.91 C
587 04-08-2018 00:50:00 22.7 C 69 % 16.72 C
588 04-08-2018 00:55:00 22.6 C 70 % 16.85 C
589 04-08-2018 01:00:00 22.6 C 70 % 16.85 C
590 04-08-2018 01:05:00 22.4 C 70 % 16.66 C
591 04-08-2018 01:10:00 22.3 C 71 % 16.79 C
592 04-08-2018 01:15:00 22.1 C 72 % 16.82 C
593 04-08-2018 01:20:00 22.1 C 73 % 17.03 C
594 04-08-2018 01:25:00 22 C 72 % 16.72 C
595 04-08-2018 01:30:00 21.8 C 73 % 16.75 C
596 04-08-2018 01:35:00 21.7 C 73 % 16.65 C
597 04-08-2018 01:40:00 21.7 C 74 % 16.86 C
598 04-08-2018 01:45:00 21.6 C 73 % 16.55 C
599 04-08-2018 01:50:00 21.5 C 74 % 16.67 C
600 04-08-2018 01:55:00 21.4 C 74 % 16.57 C
Sensor: Nr:Datum:Temp:Feuchte:Taupunkt:
Aussen-T/F 601 04-08-2018 02:00:00 21.3 C 75 % 16.69 C
602 04-08-2018 02:05:00 21.2 C 74 % 16.38 C
603 04-08-2018 02:10:00 21.2 C 74 % 16.38 C
604 04-08-2018 02:15:00 21.1 C 75 % 16.5 C
605 04-08-2018 02:20:00 21.1 C 76 % 16.7 C
606 04-08-2018 02:25:00 21.1 C 75 % 16.5 C
607 04-08-2018 02:30:00 21 C 76 % 16.61 C
608 04-08-2018 02:35:00 20.9 C 75 % 16.3 C
609 04-08-2018 02:40:00 20.9 C 75 % 16.3 C
610 04-08-2018 02:45:00 20.9 C 76 % 16.51 C
611 04-08-2018 02:50:00 20.9 C 75 % 16.3 C
612 04-08-2018 02:55:00 20.8 C 76 % 16.41 C
613 04-08-2018 03:00:00 20.8 C 76 % 16.41 C
614 04-08-2018 03:05:00 20.7 C 76 % 16.32 C
615 04-08-2018 03:10:00 20.7 C 76 % 16.32 C
616 04-08-2018 03:15:00 20.7 C 76 % 16.32 C
617 04-08-2018 03:20:00 20.6 C 76 % 16.22 C
618 04-08-2018 03:25:00 20.6 C 77 % 16.43 C
619 04-08-2018 03:30:00 20.5 C 77 % 16.33 C
620 04-08-2018 03:35:00 20.4 C 78 % 16.44 C
621 04-08-2018 03:40:00 20.4 C 78 % 16.44 C
622 04-08-2018 03:45:00 20.4 C 78 % 16.44 C
623 04-08-2018 03:50:00 20.4 C 78 % 16.44 C
624 04-08-2018 03:55:00 20.3 C 78 % 16.34 C
625 04-08-2018 04:00:00 20.2 C 78 % 16.24 C
Sensor: Nr:Datum:Temp:Feuchte:Taupunkt:
Aussen-T/F 626 04-08-2018 04:05:00 20.1 C 79 % 16.34 C
627 04-08-2018 04:10:00 20 C 80 % 16.44 C
628 04-08-2018 04:15:00 19.9 C 79 % 16.15 C
629 04-08-2018 04:20:00 19.9 C 80 % 16.35 C
630 04-08-2018 04:25:00 19.9 C 80 % 16.35 C
631 04-08-2018 04:30:00 19.8 C 80 % 16.25 C
632 04-08-2018 04:35:00 19.8 C 80 % 16.25 C
633 04-08-2018 04:40:00 19.8 C 80 % 16.25 C
634 04-08-2018 04:45:00 19.7 C 80 % 16.15 C
635 04-08-2018 04:50:00 19.7 C 81 % 16.35 C
636 04-08-2018 04:55:00 19.6 C 81 % 16.25 C
637 04-08-2018 05:00:00 19.6 C 81 % 16.25 C
638 04-08-2018 05:05:00 19.6 C 82 % 16.44 C
639 04-08-2018 05:10:00 19.6 C 82 % 16.44 C
640 04-08-2018 05:15:00 19.6 C 82 % 16.44 C
641 04-08-2018 05:20:00 19.6 C 82 % 16.44 C
642 04-08-2018 05:25:00 19.6 C 82 % 16.44 C
643 04-08-2018 05:30:00 19.6 C 82 % 16.44 C
644 04-08-2018 05:35:00 19.7 C 82 % 16.54 C
645 04-08-2018 05:40:00 19.7 C 82 % 16.54 C
646 04-08-2018 05:45:00 19.7 C 82 % 16.54 C
647 04-08-2018 05:50:00 19.7 C 81 % 16.35 C
648 04-08-2018 05:55:00 19.7 C 81 % 16.35 C
649 04-08-2018 06:00:00 19.8 C 81 % 16.45 C
650 04-08-2018 06:05:00 19.8 C 81 % 16.45 C
Sensor: Nr:Datum:Temp:Feuchte:Taupunkt:
Aussen-T/F 651 04-08-2018 06:10:00 19.8 C 81 % 16.45 C
652 04-08-2018 06:15:00 19.8 C 81 % 16.45 C
653 04-08-2018 06:20:00 19.8 C 81 % 16.45 C
654 04-08-2018 06:25:00 19.7 C 82 % 16.54 C
655 04-08-2018 06:30:00 19.6 C 82 % 16.44 C
656 04-08-2018 06:35:00 19.6 C 82 % 16.44 C
657 04-08-2018 06:40:00 19.4 C 82 % 16.25 C
658 04-08-2018 06:45:00 19.4 C 83 % 16.44 C
659 04-08-2018 06:50:00 19.4 C 83 % 16.44 C
660 04-08-2018 06:55:00 19.4 C 83 % 16.44 C
661 04-08-2018 07:00:00 19.4 C 84 % 16.63 C
662 04-08-2018 07:05:00 19.4 C 84 % 16.63 C
663 04-08-2018 07:10:00 19.5 C 84 % 16.72 C
664 04-08-2018 07:15:00 19.6 C 84 % 16.82 C
665 04-08-2018 07:20:00 19.7 C 84 % 16.92 C
666 04-08-2018 07:25:00 19.8 C 83 % 16.83 C
667 04-08-2018 07:30:00 19.9 C 83 % 16.93 C
668 04-08-2018 07:35:00 20.1 C 83 % 17.12 C
669 04-08-2018 07:40:00 20.2 C 82 % 17.03 C
670 04-08-2018 07:45:00 20.2 C 82 % 17.03 C
671 04-08-2018 07:50:00 20.3 C 82 % 17.13 C
672 04-08-2018 07:55:00 20.4 C 82 % 17.22 C
673 04-08-2018 08:00:00 20.4 C 82 % 17.22 C
674 04-08-2018 08:05:00 20.5 C 83 % 17.51 C
675 04-08-2018 08:10:00 20.6 C 83 % 17.61 C
Sensor: Nr:Datum:Temp:Feuchte:Taupunkt:
Aussen-T/F 676 04-08-2018 08:15:00 20.7 C 82 % 17.52 C
677 04-08-2018 08:20:00 20.8 C 82 % 17.61 C
678 04-08-2018 08:25:00 20.8 C 82 % 17.61 C
679 04-08-2018 08:30:00 20.9 C 82 % 17.71 C
680 04-08-2018 08:35:00 21 C 82 % 17.81 C
681 04-08-2018 08:40:00 21.1 C 81 % 17.71 C
682 04-08-2018 08:45:00 21.2 C 81 % 17.81 C
683 04-08-2018 08:50:00 21.3 C 82 % 18.1 C
684 04-08-2018 08:55:00 21.5 C 81 % 18.1 C
685 04-08-2018 09:00:00 21.7 C 79 % 17.9 C
686 04-08-2018 09:05:00 21.9 C 81 % 18.49 C
687 04-08-2018 09:10:00 22.1 C 79 % 18.29 C
688 04-08-2018 09:15:00 22.3 C 78 % 18.28 C
689 04-08-2018 09:20:00 22.6 C 77 % 18.36 C
690 04-08-2018 09:25:00 23 C 74 % 18.12 C
691 04-08-2018 09:30:00 23.5 C 71 % 17.94 C
692 04-08-2018 09:35:00 24.1 C 70 % 18.29 C
693 04-08-2018 09:40:00 24.5 C 68 % 18.2 C
694 04-08-2018 09:45:00 24.9 C 66 % 18.11 C
695 04-08-2018 09:50:00 25.2 C 65 % 18.15 C
696 04-08-2018 09:55:00 25.6 C 65 % 18.53 C
697 04-08-2018 10:00:00 25.8 C 63 % 18.22 C
698 04-08-2018 10:05:00 26.1 C 63 % 18.5 C
699 04-08-2018 10:10:00 26.1 C 62 % 18.25 C
700 04-08-2018 10:15:00 26.1 C 62 % 18.25 C
Sensor: Nr:Datum:Temp:Feuchte:Taupunkt:
Aussen-T/F 701 04-08-2018 10:20:00 26.1 C 62 % 18.25 C
702 04-08-2018 10:25:00 26 C 62 % 18.15 C
703 04-08-2018 10:30:00 25.9 C 62 % 18.06 C
704 04-08-2018 10:35:00 26 C 62 % 18.15 C
705 04-08-2018 10:40:00 26.1 C 64 % 18.76 C
706 04-08-2018 10:55:00 26.5 C 59 % 17.83 C
707 04-08-2018 11:00:00 26.7 C 60 % 18.29 C
708 04-08-2018 11:05:00 26.9 C 59 % 18.21 C
709 04-08-2018 11:10:00 27.2 C 58 % 18.22 C
710 04-08-2018 11:15:00 27.4 C 56 % 17.84 C
711 04-08-2018 11:20:00 27.7 C 55 % 17.84 C
712 04-08-2018 11:55:00 28.8 C 54 % 18.56 C
713 04-08-2018 12:00:00 28.8 C 54 % 18.56 C
714 04-08-2018 12:05:00 28.9 C 53 % 18.36 C
715 04-08-2018 12:10:00 28.9 C 53 % 18.36 C
716 04-08-2018 12:15:00 28.9 C 53 % 18.36 C
717 04-08-2018 12:20:00 29 C 53 % 18.45 C
718 04-08-2018 12:25:00 29.1 C 53 % 18.54 C
719 04-08-2018 12:30:00 29.1 C 52 % 18.24 C
720 04-08-2018 12:35:00 29.2 C 53 % 18.63 C
721 04-08-2018 12:40:00 29.3 C 52 % 18.42 C
722 04-08-2018 12:45:00 29.2 C 53 % 18.63 C
723 04-08-2018 12:50:00 29.3 C 52 % 18.42 C
724 04-08-2018 12:55:00 29.4 C 52 % 18.51 C
725 04-08-2018 13:00:00 29.5 C 53 % 18.91 C
Sensor: Nr:Datum:Temp:Feuchte:Taupunkt:
Aussen-T/F 726 04-08-2018 13:05:00 29.7 C 50 % 18.16 C
727 04-08-2018 13:10:00 29.9 C 47 % 17.36 C
728 04-08-2018 13:15:00 30.1 C 47 % 17.54 C
729 04-08-2018 13:20:00 30.3 C 47 % 17.73 C
730 04-08-2018 13:25:00 30.4 C 47 % 17.82 C
731 04-08-2018 13:30:00 30.6 C 46 % 17.66 C
732 04-08-2018 13:35:00 30.8 C 45 % 17.49 C
733 04-08-2018 13:40:00 30.8 C 45 % 17.49 C
734 04-08-2018 13:45:00 30.9 C 45 % 17.58 C
735 04-08-2018 13:50:00 30.9 C 45 % 17.58 C
736 04-08-2018 13:55:00 31.1 C 45 % 17.76 C
737 04-08-2018 14:00:00 31.3 C 45 % 17.94 C
738 04-08-2018 14:05:00 31.4 C 44 % 17.67 C
739 04-08-2018 14:10:00 31.4 C 43 % 17.31 C
740 04-08-2018 14:15:00 31.4 C 44 % 17.67 C
741 04-08-2018 14:20:00 31.6 C 44 % 17.85 C
742 04-08-2018 14:25:00 31.7 C 45 % 18.3 C
743 04-08-2018 14:30:00 31.8 C 45 % 18.39 C
744 04-08-2018 14:35:00 31.9 C 43 % 17.76 C
745 04-08-2018 14:40:00 32.1 C 43 % 17.94 C
746 04-08-2018 14:45:00 32.2 C 42 % 17.65 C
747 04-08-2018 14:50:00 32.3 C 42 % 17.74 C
748 04-08-2018 14:55:00 32.4 C 41 % 17.45 C
749 04-08-2018 15:00:00 32.6 C 41 % 17.63 C
750 04-08-2018 15:05:00 32.9 C 39 % 17.11 C
Sensor: Nr:Datum:Temp:Feuchte:Taupunkt:
Aussen-T/F 751 04-08-2018 15:10:00 33.1 C 39 % 17.28 C
752 04-08-2018 15:15:00 33.1 C 40 % 17.68 C
753 04-08-2018 15:20:00 33.3 C 38 % 17.05 C
754 04-08-2018 15:25:00 33.4 C 38 % 17.14 C
755 04-08-2018 15:30:00 33.6 C 37 % 16.89 C
756 04-08-2018 15:35:00 33.7 C 37 % 16.98 C
757 04-08-2018 15:40:00 33.8 C 35 % 16.19 C
758 04-08-2018 15:45:00 34 C 34 % 15.92 C
759 04-08-2018 15:50:00 34.2 C 35 % 16.54 C
760 04-08-2018 15:55:00 34.6 C 32 % 15.49 C
761 04-08-2018 16:00:00 34.7 C 32 % 15.58 C
762 04-08-2018 16:05:00 34.7 C 31 % 15.08 C
763 04-08-2018 16:10:00 34.8 C 32 % 15.66 C
764 04-08-2018 16:15:00 34.9 C 31 % 15.25 C
765 04-08-2018 16:20:00 34.9 C 30 % 14.74 C
766 04-08-2018 16:25:00 34.7 C 31 % 15.08 C
767 04-08-2018 16:30:00 34.8 C 31 % 15.17 C
768 04-08-2018 16:35:00 34.8 C 31 % 15.17 C
769 04-08-2018 16:40:00 34.9 C 30 % 14.74 C
770 04-08-2018 16:45:00 34.7 C 29 % 14.05 C
771 04-08-2018 16:50:00 34.7 C 30 % 14.57 C
772 04-08-2018 16:55:00 34.8 C 29 % 14.13 C
773 04-08-2018 17:00:00 34.9 C 30 % 14.74 C
774 04-08-2018 17:05:00 35 C 29 % 14.3 C
775 04-08-2018 17:10:00 35 C 29 % 14.3 C
Sensor: Nr:Datum:Temp:Feuchte:Taupunkt:
Aussen-T/F 776 04-08-2018 17:15:00 34.8 C 29 % 14.13 C
777 04-08-2018 17:20:00 34.8 C 29 % 14.13 C
778 04-08-2018 17:25:00 34.7 C 29 % 14.05 C
779 04-08-2018 17:30:00 34.8 C 29 % 14.13 C
780 04-08-2018 17:35:00 34.7 C 29 % 14.05 C
781 04-08-2018 17:40:00 34.7 C 30 % 14.57 C
782 04-08-2018 17:45:00 34.8 C 30 % 14.66 C
783 04-08-2018 17:50:00 34.9 C 30 % 14.74 C
784 04-08-2018 17:55:00 34.9 C 29 % 14.22 C
785 04-08-2018 18:00:00 35 C 29 % 14.3 C
786 04-08-2018 18:05:00 35 C 29 % 14.3 C
787 04-08-2018 18:10:00 34.8 C 28 % 13.59 C
788 04-08-2018 18:15:00 34.6 C 29 % 13.96 C
789 04-08-2018 18:20:00 34.4 C 29 % 13.79 C
790 04-08-2018 18:25:00 34.3 C 28 % 13.17 C
791 04-08-2018 18:30:00 34.1 C 28 % 13 C
792 04-08-2018 18:35:00 33.8 C 28 % 12.74 C
793 04-08-2018 18:40:00 33.8 C 29 % 13.28 C
794 04-08-2018 18:45:00 33.8 C 29 % 13.28 C
795 04-08-2018 18:50:00 33.7 C 30 % 13.71 C
796 04-08-2018 18:55:00 33.6 C 30 % 13.63 C
797 04-08-2018 19:00:00 33.6 C 30 % 13.63 C
798 04-08-2018 19:05:00 33.5 C 30 % 13.54 C
799 04-08-2018 19:10:00 33.3 C 29 % 12.85 C
800 04-08-2018 19:15:00 33.3 C 30 % 13.37 C
Sensor: Nr:Datum:Temp:Feuchte:Taupunkt:
Aussen-T/F 801 04-08-2018 19:20:00 33.2 C 31 % 13.79 C
802 04-08-2018 19:25:00 33.1 C 30 % 13.2 C
803 04-08-2018 19:30:00 32.9 C 30 % 13.03 C
804 04-08-2018 19:35:00 32.8 C 31 % 13.44 C
805 04-08-2018 19:40:00 32.6 C 31 % 13.27 C
806 04-08-2018 19:45:00 32.4 C 32 % 13.59 C
807 04-08-2018 19:50:00 32.3 C 32 % 13.5 C
808 04-08-2018 19:55:00 32.1 C 32 % 13.33 C
809 04-08-2018 20:00:00 31.8 C 32 % 13.07 C
810 04-08-2018 20:05:00 31.7 C 33 % 13.45 C
811 04-08-2018 20:10:00 31.4 C 34 % 13.65 C
812 04-08-2018 20:15:00 31.3 C 34 % 13.56 C
813 04-08-2018 20:20:00 31.1 C 35 % 13.83 C
814 04-08-2018 20:25:00 30.9 C 35 % 13.66 C
815 04-08-2018 20:30:00 30.7 C 36 % 13.92 C
816 04-08-2018 20:35:00 30.4 C 38 % 14.49 C
817 04-08-2018 20:40:00 30.2 C 39 % 14.71 C
818 04-08-2018 20:45:00 29.8 C 38 % 13.95 C
819 04-08-2018 20:50:00 29.7 C 39 % 14.27 C
820 04-08-2018 20:55:00 29.5 C 39 % 14.09 C
821 04-08-2018 21:00:00 29.4 C 41 % 14.77 C
822 04-08-2018 21:05:00 29.3 C 43 % 15.42 C
823 04-08-2018 21:10:00 28.9 C 43 % 15.06 C
824 04-08-2018 21:15:00 28.5 C 44 % 15.06 C
825 04-08-2018 21:20:00 28.1 C 47 % 15.73 C
Sensor: Nr:Datum:Temp:Feuchte:Taupunkt:
Aussen-T/F 826 04-08-2018 21:25:00 27.6 C 46 % 14.94 C
827 04-08-2018 21:30:00 27.4 C 48 % 15.42 C
828 04-08-2018 21:35:00 27.2 C 50 % 15.87 C
829 04-08-2018 21:40:00 27.1 C 50 % 15.78 C
830 04-08-2018 21:45:00 26.8 C 51 % 15.82 C
831 04-08-2018 21:50:00 26.8 C 51 % 15.82 C
832 04-08-2018 21:55:00 26.7 C 51 % 15.72 C
833 04-08-2018 22:00:00 26.4 C 53 % 16.05 C
834 04-08-2018 22:05:00 26.1 C 53 % 15.77 C
835 04-08-2018 22:10:00 25.8 C 55 % 16.07 C
836 04-08-2018 22:15:00 25.9 C 53 % 15.59 C
837 04-08-2018 22:20:00 25.9 C 55 % 16.17 C
838 04-08-2018 22:25:00 25.8 C 55 % 16.07 C
839 04-08-2018 22:30:00 25.7 C 55 % 15.98 C
840 04-08-2018 22:35:00 25.4 C 56 % 15.99 C
841 04-08-2018 22:40:00 25.2 C 57 % 16.08 C
842 04-08-2018 22:45:00 25.1 C 58 % 16.26 C
843 04-08-2018 22:50:00 24.9 C 59 % 16.34 C
844 04-08-2018 22:55:00 24.8 C 58 % 15.98 C
845 04-08-2018 23:00:00 24.6 C 59 % 16.06 C
846 04-08-2018 23:05:00 24.5 C 60 % 16.23 C
847 04-08-2018 23:10:00 24.4 C 61 % 16.39 C
848 04-08-2018 23:15:00 24.3 C 61 % 16.3 C
849 04-08-2018 23:20:00 24.2 C 61 % 16.2 C
850 04-08-2018 23:25:00 24.1 C 62 % 16.37 C
Sensor: Nr:Datum:Temp:Feuchte:Taupunkt:
Aussen-T/F 851 04-08-2018 23:30:00 24.1 C 62 % 16.37 C
852 04-08-2018 23:35:00 24 C 62 % 16.27 C
853 04-08-2018 23:40:00 23.9 C 62 % 16.18 C
854 04-08-2018 23:45:00 24.1 C 62 % 16.37 C
855 04-08-2018 23:50:00 24.2 C 63 % 16.71 C
856 04-08-2018 23:55:00 24.2 C 62 % 16.46 C
857 05-08-2018 00:00:00 24.4 C 62 % 16.65 C
858 05-08-2018 00:05:00 24.7 C 62 % 16.93 C
859 05-08-2018 00:10:00 24.8 C 62 % 17.02 C
860 05-08-2018 00:15:00 25 C 61 % 16.96 C
861 05-08-2018 00:20:00 25.1 C 61 % 17.05 C
862 05-08-2018 00:25:00 25.2 C 61 % 17.14 C
863 05-08-2018 00:30:00 25.2 C 62 % 17.4 C
864 05-08-2018 00:35:00 25.1 C 62 % 17.31 C
865 05-08-2018 00:40:00 25.1 C 62 % 17.31 C
866 05-08-2018 00:45:00 25.1 C 63 % 17.56 C
867 05-08-2018 00:50:00 25.1 C 63 % 17.56 C
868 05-08-2018 00:55:00 24.9 C 63 % 17.37 C
869 05-08-2018 01:00:00 24.8 C 64 % 17.53 C
870 05-08-2018 01:05:00 24.7 C 65 % 17.68 C
871 05-08-2018 01:10:00 24.7 C 65 % 17.68 C
872 05-08-2018 01:15:00 24.7 C 65 % 17.68 C
873 05-08-2018 01:20:00 24.7 C 66 % 17.92 C
874 05-08-2018 01:25:00 24.6 C 66 % 17.83 C
875 05-08-2018 01:30:00 24.6 C 66 % 17.83 C
Sensor: Nr:Datum:Temp:Feuchte:Taupunkt:
Aussen-T/F 876 05-08-2018 01:35:00 24.4 C 67 % 17.87 C
877 05-08-2018 01:40:00 24.4 C 67 % 17.87 C
878 05-08-2018 01:45:00 24.4 C 67 % 17.87 C
879 05-08-2018 01:50:00 24.3 C 68 % 18.01 C
880 05-08-2018 01:55:00 24.3 C 68 % 18.01 C
881 05-08-2018 02:00:00 24.2 C 68 % 17.92 C
882 05-08-2018 02:05:00 24 C 69 % 17.96 C
883 05-08-2018 02:10:00 23.9 C 69 % 17.87 C
884 05-08-2018 02:15:00 23.8 C 70 % 18 C
885 05-08-2018 02:20:00 23.6 C 70 % 17.81 C
886 05-08-2018 02:25:00 23.5 C 70 % 17.71 C
887 05-08-2018 02:30:00 23.4 C 70 % 17.62 C
888 05-08-2018 02:35:00 23.4 C 71 % 17.84 C
889 05-08-2018 02:40:00 23.3 C 71 % 17.75 C
890 05-08-2018 02:45:00 23.2 C 71 % 17.65 C
891 05-08-2018 02:50:00 23.1 C 71 % 17.55 C
892 05-08-2018 02:55:00 22.9 C 72 % 17.58 C
893 05-08-2018 03:00:00 22.8 C 72 % 17.49 C
894 05-08-2018 03:05:00 22.7 C 73 % 17.61 C
895 05-08-2018 03:10:00 22.6 C 74 % 17.73 C
896 05-08-2018 03:15:00 22.4 C 74 % 17.54 C
897 05-08-2018 03:20:00 22.3 C 74 % 17.44 C
898 05-08-2018 03:25:00 22.2 C 75 % 17.56 C
899 05-08-2018 03:30:00 22.1 C 75 % 17.46 C
900 05-08-2018 03:35:00 21.9 C 76 % 17.48 C
Sensor: Nr:Datum:Temp:Feuchte:Taupunkt:
Aussen-T/F 901 05-08-2018 03:40:00 21.8 C 77 % 17.59 C
902 05-08-2018 03:45:00 21.8 C 77 % 17.59 C
903 05-08-2018 03:50:00 21.7 C 77 % 17.49 C
904 05-08-2018 03:55:00 21.7 C 77 % 17.49 C
905 05-08-2018 04:00:00 21.6 C 78 % 17.6 C
906 05-08-2018 04:05:00 21.5 C 78 % 17.5 C
907 05-08-2018 04:10:00 21.4 C 78 % 17.4 C
908 05-08-2018 04:15:00 21.3 C 79 % 17.51 C
909 05-08-2018 04:20:00 21.2 C 79 % 17.41 C
910 05-08-2018 04:25:00 21.1 C 79 % 17.32 C
911 05-08-2018 04:30:00 21.1 C 80 % 17.51 C
912 05-08-2018 04:35:00 21.1 C 80 % 17.51 C
913 05-08-2018 04:40:00 21.1 C 80 % 17.51 C
914 05-08-2018 04:45:00 21 C 80 % 17.42 C
915 05-08-2018 04:50:00 20.9 C 80 % 17.32 C
916 05-08-2018 04:55:00 20.9 C 80 % 17.32 C
917 05-08-2018 05:00:00 20.8 C 80 % 17.22 C
918 05-08-2018 05:05:00 20.8 C 81 % 17.42 C
919 05-08-2018 05:10:00 20.7 C 81 % 17.32 C
920 05-08-2018 05:15:00 20.6 C 81 % 17.22 C
921 05-08-2018 05:20:00 20.5 C 81 % 17.13 C
922 05-08-2018 05:25:00 20.4 C 82 % 17.22 C
923 05-08-2018 05:30:00 20.3 C 82 % 17.13 C
924 05-08-2018 05:35:00 20.2 C 82 % 17.03 C
925 05-08-2018 05:40:00 20.2 C 83 % 17.22 C
Sensor: Nr:Datum:Temp:Feuchte:Taupunkt:
Aussen-T/F 926 05-08-2018 05:45:00 20.2 C 83 % 17.22 C
927 05-08-2018 05:50:00 20.2 C 83 % 17.22 C
928 05-08-2018 05:55:00 20.1 C 83 % 17.12 C
929 05-08-2018 06:00:00 20.1 C 83 % 17.12 C
930 05-08-2018 06:05:00 20.1 C 84 % 17.31 C
931 05-08-2018 06:10:00 20.1 C 83 % 17.12 C
932 05-08-2018 06:15:00 20.1 C 83 % 17.12 C
933 05-08-2018 06:20:00 20 C 84 % 17.21 C
934 05-08-2018 06:25:00 20 C 84 % 17.21 C
935 05-08-2018 06:30:00 19.9 C 84 % 17.12 C
936 05-08-2018 06:35:00 19.9 C 84 % 17.12 C
937 05-08-2018 06:40:00 20 C 84 % 17.21 C
938 05-08-2018 06:45:00 20 C 84 % 17.21 C
939 05-08-2018 06:50:00 20.1 C 84 % 17.31 C
940 05-08-2018 06:55:00 20.1 C 84 % 17.31 C
941 05-08-2018 07:00:00 20.1 C 84 % 17.31 C
942 05-08-2018 07:05:00 20.1 C 84 % 17.31 C
943 05-08-2018 07:10:00 20.2 C 84 % 17.41 C
944 05-08-2018 07:15:00 20.2 C 84 % 17.41 C
945 05-08-2018 07:20:00 20.2 C 84 % 17.41 C
946 05-08-2018 07:25:00 20.3 C 84 % 17.51 C
947 05-08-2018 07:30:00 20.3 C 84 % 17.51 C
948 05-08-2018 07:35:00 20.3 C 83 % 17.32 C
949 05-08-2018 07:40:00 20.4 C 83 % 17.42 C
950 05-08-2018 07:45:00 20.5 C 84 % 17.7 C
Sensor: Nr:Datum:Temp:Feuchte:Taupunkt:
Aussen-T/F 951 05-08-2018 07:50:00 20.6 C 83 % 17.61 C
952 05-08-2018 07:55:00 20.7 C 83 % 17.71 C
953 05-08-2018 08:00:00 20.7 C 82 % 17.52 C
954 05-08-2018 08:05:00 20.9 C 81 % 17.52 C
955 05-08-2018 08:10:00 21 C 81 % 17.61 C
956 05-08-2018 08:15:00 21.2 C 80 % 17.61 C
957 05-08-2018 08:20:00 21.2 C 80 % 17.61 C
958 05-08-2018 08:25:00 21.3 C 79 % 17.51 C
959 05-08-2018 08:30:00 21.4 C 79 % 17.61 C
960 05-08-2018 08:35:00 21.5 C 78 % 17.5 C
961 05-08-2018 08:40:00 21.6 C 78 % 17.6 C
962 05-08-2018 08:45:00 21.7 C 78 % 17.7 C
963 05-08-2018 08:50:00 21.8 C 77 % 17.59 C
964 05-08-2018 08:55:00 21.8 C 76 % 17.38 C
965 05-08-2018 09:00:00 21.9 C 76 % 17.48 C
966 05-08-2018 09:05:00 22 C 76 % 17.57 C
967 05-08-2018 09:10:00 22.1 C 75 % 17.46 C
968 05-08-2018 09:15:00 22.1 C 74 % 17.25 C
969 05-08-2018 09:20:00 22.2 C 74 % 17.34 C
970 05-08-2018 09:25:00 22.2 C 73 % 17.13 C
971 05-08-2018 09:30:00 22.3 C 73 % 17.23 C
972 05-08-2018 09:35:00 22.4 C 72 % 17.1 C
973 05-08-2018 09:40:00 22.4 C 71 % 16.88 C
974 05-08-2018 09:45:00 22.4 C 71 % 16.88 C
975 05-08-2018 09:50:00 22.6 C 70 % 16.85 C
Sensor: Nr:Datum:Temp:Feuchte:Taupunkt:
Aussen-T/F 976 05-08-2018 09:55:00 22.7 C 70 % 16.95 C
977 05-08-2018 10:00:00 22.7 C 69 % 16.72 C
978 05-08-2018 10:05:00 22.7 C 68 % 16.49 C
979 05-08-2018 10:10:00 22.7 C 68 % 16.49 C
980 05-08-2018 10:15:00 22.8 C 68 % 16.59 C
981 05-08-2018 10:20:00 22.9 C 67 % 16.45 C
982 05-08-2018 10:25:00 23.2 C 67 % 16.73 C
983 05-08-2018 10:30:00 23.4 C 65 % 16.45 C
984 05-08-2018 10:35:00 23.6 C 64 % 16.39 C
985 05-08-2018 10:40:00 23.7 C 64 % 16.49 C
986 05-08-2018 10:45:00 23.7 C 63 % 16.24 C
987 05-08-2018 10:50:00 23.7 C 62 % 15.99 C
988 05-08-2018 10:55:00 23.7 C 62 % 15.99 C
989 05-08-2018 11:00:00 23.8 C 62 % 16.08 C
990 05-08-2018 11:05:00 23.9 C 61 % 15.92 C
991 05-08-2018 11:10:00 24 C 60 % 15.76 C
992 05-08-2018 11:15:00 24.1 C 61 % 16.11 C
993 05-08-2018 11:20:00 24.2 C 59 % 15.68 C
994 05-08-2018 11:25:00 24.3 C 57 % 15.24 C
995 05-08-2018 11:30:00 24.4 C 57 % 15.33 C
996 05-08-2018 11:35:00 24.4 C 58 % 15.6 C
997 05-08-2018 11:40:00 24.5 C 58 % 15.7 C
998 05-08-2018 11:45:00 24.6 C 58 % 15.79 C
999 05-08-2018 11:50:00 24.7 C 57 % 15.61 C
1000 05-08-2018 11:55:00 24.8 C 55 % 15.15 C
Sensor: Nr:Datum:Temp:Feuchte:Taupunkt:
Aussen-T/F 1001 05-08-2018 12:00:00 24.8 C 55 % 15.15 C
1002 05-08-2018 12:05:00 24.8 C 55 % 15.15 C
1003 05-08-2018 12:10:00 24.9 C 55 % 15.24 C
1004 05-08-2018 12:15:00 25.2 C 55 % 15.52 C
1005 05-08-2018 12:20:00 25.3 C 54 % 15.33 C
1006 05-08-2018 12:25:00 25.3 C 54 % 15.33 C
1007 05-08-2018 12:30:00 25.3 C 53 % 15.03 C
1008 05-08-2018 12:35:00 25.5 C 54 % 15.51 C
1009 05-08-2018 12:40:00 25.7 C 51 % 14.81 C
1010 05-08-2018 12:45:00 25.7 C 49 % 14.19 C
1011 05-08-2018 12:50:00 25.6 C 51 % 14.71 C
1012 05-08-2018 12:55:00 25.7 C 51 % 14.81 C
1013 05-08-2018 13:00:00 25.7 C 51 % 14.81 C
1014 05-08-2018 13:05:00 25.8 C 49 % 14.28 C
1015 05-08-2018 13:10:00 25.8 C 50 % 14.59 C
1016 05-08-2018 13:15:00 25.9 C 51 % 14.99 C
1017 05-08-2018 13:20:00 26.1 C 49 % 14.55 C
1018 05-08-2018 13:25:00 26 C 50 % 14.77 C
1019 05-08-2018 13:30:00 26.1 C 50 % 14.87 C
1020 05-08-2018 13:35:00 26.1 C 50 % 14.87 C
1021 05-08-2018 13:40:00 26.1 C 49 % 14.55 C
1022 05-08-2018 13:45:00 26.2 C 49 % 14.64 C
1023 05-08-2018 13:50:00 26.3 C 50 % 15.05 C
1024 05-08-2018 13:55:00 26.4 C 49 % 14.83 C
1025 05-08-2018 14:00:00 26.6 C 48 % 14.69 C
Sensor: Nr:Datum:Temp:Feuchte:Taupunkt:
Aussen-T/F 1026 05-08-2018 14:05:00 26.7 C 48 % 14.78 C
1027 05-08-2018 14:10:00 26.9 C 48 % 14.96 C
1028 05-08-2018 14:15:00 26.9 C 47 % 14.64 C
1029 05-08-2018 14:20:00 26.9 C 47 % 14.64 C
1030 05-08-2018 14:25:00 26.9 C 45 % 13.96 C
1031 05-08-2018 14:30:00 26.9 C 45 % 13.96 C
1032 05-08-2018 14:35:00 27 C 45 % 14.06 C
1033 05-08-2018 14:40:00 27.1 C 44 % 13.8 C
1034 05-08-2018 14:45:00 27.3 C 46 % 14.67 C
1035 05-08-2018 14:50:00 27.5 C 45 % 14.51 C
1036 05-08-2018 14:55:00 27.7 C 44 % 14.34 C
1037 05-08-2018 15:00:00 27.7 C 43 % 13.99 C
1038 05-08-2018 15:05:00 27.7 C 43 % 13.99 C
1039 05-08-2018 15:10:00 27.9 C 44 % 14.52 C
1040 05-08-2018 15:15:00 28.1 C 42 % 13.98 C
1041 05-08-2018 15:20:00 28.1 C 42 % 13.98 C
1042 05-08-2018 15:25:00 28.5 C 42 % 14.34 C
1043 05-08-2018 15:30:00 28.8 C 41 % 14.24 C
1044 05-08-2018 15:35:00 29.1 C 42 % 14.88 C
1045 05-08-2018 15:40:00 29.4 C 40 % 14.39 C
1046 05-08-2018 15:45:00 29.6 C 39 % 14.18 C
1047 05-08-2018 15:50:00 29.7 C 39 % 14.27 C
1048 05-08-2018 15:55:00 30.1 C 38 % 14.22 C
1049 05-08-2018 16:00:00 30.3 C 37 % 13.99 C
1050 05-08-2018 16:05:00 30.3 C 39 % 14.8 C
Sensor: Nr:Datum:Temp:Feuchte:Taupunkt:
Aussen-T/F 1051 05-08-2018 16:10:00 30.3 C 38 % 14.4 C
1052 05-08-2018 16:15:00 30.2 C 38 % 14.31 C
1053 05-08-2018 16:20:00 30.2 C 39 % 14.71 C
1054 05-08-2018 16:25:00 30.4 C 39 % 14.89 C
1055 05-08-2018 16:30:00 30.6 C 37 % 14.25 C
1056 05-08-2018 16:35:00 30.6 C 39 % 15.07 C
1057 05-08-2018 16:40:00 30.8 C 36 % 14 C
1058 05-08-2018 16:45:00 30.9 C 37 % 14.51 C
1059 05-08-2018 16:50:00 30.8 C 37 % 14.43 C
1060 05-08-2018 16:55:00 30.8 C 37 % 14.43 C
1061 05-08-2018 17:00:00 30.8 C 37 % 14.43 C
1062 05-08-2018 17:05:00 31 C 37 % 14.6 C
1063 05-08-2018 17:10:00 31.2 C 36 % 14.35 C
1064 05-08-2018 17:15:00 31.1 C 36 % 14.27 C
1065 05-08-2018 17:20:00 31.1 C 37 % 14.69 C
1066 05-08-2018 17:25:00 30.9 C 36 % 14.09 C
1067 05-08-2018 17:30:00 30.6 C 37 % 14.25 C
1068 05-08-2018 17:35:00 30.6 C 38 % 14.66 C
1069 05-08-2018 17:40:00 30.8 C 37 % 14.43 C
1070 05-08-2018 17:45:00 31 C 36 % 14.18 C
1071 05-08-2018 17:50:00 31.2 C 36 % 14.35 C
1072 05-08-2018 17:55:00 31.4 C 35 % 14.1 C
1073 05-08-2018 18:00:00 31.7 C 35 % 14.36 C
1074 05-08-2018 18:05:00 31.7 C 35 % 14.36 C
1075 05-08-2018 18:10:00 31.4 C 35 % 14.1 C
Sensor: Nr:Datum:Temp:Feuchte:Taupunkt:
Aussen-T/F 1076 05-08-2018 18:15:00 31.3 C 35 % 14.01 C
1077 05-08-2018 18:20:00 31.1 C 35 % 13.83 C
1078 05-08-2018 18:25:00 30.8 C 36 % 14 C
1079 05-08-2018 18:30:00 30.8 C 36 % 14 C
1080 05-08-2018 18:35:00 30.9 C 36 % 14.09 C
1081 05-08-2018 18:40:00 30.9 C 36 % 14.09 C
1082 05-08-2018 18:45:00 31.1 C 35 % 13.83 C
1083 05-08-2018 18:50:00 31.1 C 36 % 14.27 C
1084 05-08-2018 18:55:00 31.1 C 35 % 13.83 C
1085 05-08-2018 19:00:00 30.9 C 36 % 14.09 C
1086 05-08-2018 19:05:00 30.9 C 36 % 14.09 C
1087 05-08-2018 19:10:00 30.8 C 36 % 14 C
1088 05-08-2018 19:15:00 30.5 C 36 % 13.74 C
1089 05-08-2018 19:20:00 30.3 C 36 % 13.56 C
1090 05-08-2018 19:25:00 29.9 C 37 % 13.63 C
1091 05-08-2018 19:30:00 29.7 C 38 % 13.87 C
1092 05-08-2018 19:35:00 29.6 C 38 % 13.78 C
1093 05-08-2018 19:40:00 29.2 C 39 % 13.82 C
1094 05-08-2018 19:45:00 28.8 C 41 % 14.24 C
1095 05-08-2018 19:50:00 28.7 C 40 % 13.77 C
1096 05-08-2018 19:55:00 28.5 C 42 % 14.34 C
1097 05-08-2018 20:00:00 28.4 C 41 % 13.88 C
1098 05-08-2018 20:05:00 28.3 C 41 % 13.79 C
1099 05-08-2018 20:10:00 28.2 C 42 % 14.07 C
1100 05-08-2018 20:15:00 28.1 C 41 % 13.61 C
Sensor: Nr:Datum:Temp:Feuchte:Taupunkt:
Aussen-T/F 1101 05-08-2018 20:20:00 27.9 C 42 % 13.8 C
1102 05-08-2018 20:25:00 27.8 C 41 % 13.34 C
1103 05-08-2018 20:30:00 27.7 C 42 % 13.62 C
1104 05-08-2018 20:35:00 27.6 C 42 % 13.53 C
1105 05-08-2018 20:40:00 27.3 C 42 % 13.27 C
1106 05-08-2018 20:45:00 27.2 C 43 % 13.54 C
1107 05-08-2018 20:50:00 27 C 43 % 13.36 C
1108 05-08-2018 20:55:00 26.8 C 44 % 13.53 C
1109 05-08-2018 21:00:00 26.7 C 46 % 14.12 C
1110 05-08-2018 21:05:00 26.3 C 47 % 14.09 C
1111 05-08-2018 21:10:00 25.8 C 48 % 13.96 C
1112 05-08-2018 21:15:00 25.4 C 49 % 13.91 C
1113 05-08-2018 21:20:00 24.9 C 49 % 13.46 C
1114 05-08-2018 21:25:00 24.6 C 51 % 13.79 C
1115 05-08-2018 21:30:00 24.2 C 52 % 13.73 C
1116 05-08-2018 21:35:00 23.8 C 54 % 13.94 C
1117 05-08-2018 21:40:00 23.4 C 55 % 13.85 C
1118 05-08-2018 21:45:00 23.2 C 55 % 13.66 C
1119 05-08-2018 21:50:00 23 C 57 % 14.03 C
1120 05-08-2018 21:55:00 22.8 C 57 % 13.84 C
1121 05-08-2018 22:00:00 22.7 C 57 % 13.75 C
1122 05-08-2018 22:05:00 22.6 C 57 % 13.65 C
1123 05-08-2018 22:10:00 22.7 C 56 % 13.47 C
1124 05-08-2018 22:15:00 22.8 C 57 % 13.84 C
1125 05-08-2018 22:20:00 22.8 C 56 % 13.57 C
Sensor: Nr:Datum:Temp:Feuchte:Taupunkt:
Aussen-T/F 1126 05-08-2018 22:25:00 22.7 C 57 % 13.75 C
1127 05-08-2018 22:30:00 22.4 C 58 % 13.73 C
1128 05-08-2018 22:35:00 22.2 C 58 % 13.55 C
1129 05-08-2018 22:40:00 21.9 C 59 % 13.53 C
1130 05-08-2018 22:45:00 21.7 C 60 % 13.6 C
1131 05-08-2018 22:50:00 21.4 C 61 % 13.57 C
1132 05-08-2018 22:55:00 21.3 C 62 % 13.73 C
1133 05-08-2018 23:00:00 21.1 C 62 % 13.54 C
1134 05-08-2018 23:05:00 21 C 63 % 13.69 C
1135 05-08-2018 23:10:00 20.8 C 63 % 13.5 C
1136 05-08-2018 23:15:00 20.8 C 63 % 13.5 C
1137 05-08-2018 23:20:00 20.7 C 63 % 13.41 C
1138 05-08-2018 23:25:00 20.6 C 64 % 13.55 C
1139 05-08-2018 23:30:00 20.4 C 64 % 13.37 C
1140 05-08-2018 23:35:00 20.4 C 64 % 13.37 C
1141 05-08-2018 23:40:00 20.3 C 65 % 13.51 C
1142 05-08-2018 23:45:00 20.2 C 64 % 13.18 C
1143 05-08-2018 23:50:00 20.1 C 65 % 13.32 C
1144 05-08-2018 23:55:00 20 C 66 % 13.46 C
1145 06-08-2018 00:00:00 19.9 C 65 % 13.13 C
1146 06-08-2018 00:05:00 19.8 C 66 % 13.27 C
1147 06-08-2018 00:10:00 19.7 C 66 % 13.17 C
1148 06-08-2018 00:15:00 19.6 C 66 % 13.08 C
1149 06-08-2018 00:20:00 19.4 C 67 % 13.12 C
1150 06-08-2018 00:25:00 19.3 C 67 % 13.02 C
Sensor: Nr:Datum:Temp:Feuchte:Taupunkt:
Aussen-T/F 1151 06-08-2018 00:30:00 19.2 C 67 % 12.93 C
1152 06-08-2018 00:35:00 19.1 C 67 % 12.83 C
1153 06-08-2018 00:40:00 19 C 68 % 12.96 C
1154 06-08-2018 00:45:00 18.9 C 68 % 12.87 C
1155 06-08-2018 00:50:00 18.8 C 69 % 13 C
1156 06-08-2018 00:55:00 18.6 C 69 % 12.8 C
1157 06-08-2018 01:00:00 18.5 C 70 % 12.93 C
1158 06-08-2018 01:05:00 18.4 C 70 % 12.83 C
1159 06-08-2018 01:10:00 18.3 C 71 % 12.95 C
1160 06-08-2018 01:15:00 18.1 C 71 % 12.76 C
1161 06-08-2018 01:20:00 18 C 71 % 12.67 C
1162 06-08-2018 01:25:00 17.9 C 72 % 12.78 C
1163 06-08-2018 01:30:00 17.8 C 71 % 12.47 C
1164 06-08-2018 01:35:00 17.8 C 72 % 12.69 C
1165 06-08-2018 01:40:00 17.7 C 72 % 12.59 C
1166 06-08-2018 01:45:00 17.7 C 72 % 12.59 C
1167 06-08-2018 01:50:00 17.7 C 72 % 12.59 C
1168 06-08-2018 01:55:00 17.7 C 72 % 12.59 C
1169 06-08-2018 02:00:00 17.7 C 71 % 12.38 C
1170 06-08-2018 02:05:00 17.6 C 72 % 12.5 C
1171 06-08-2018 02:10:00 17.5 C 72 % 12.4 C
1172 06-08-2018 02:15:00 17.3 C 73 % 12.42 C
1173 06-08-2018 02:20:00 17.3 C 73 % 12.42 C
1174 06-08-2018 02:25:00 17.2 C 74 % 12.53 C
1175 06-08-2018 02:30:00 17.2 C 74 % 12.53 C
Sensor: Nr:Datum:Temp:Feuchte:Taupunkt:
Aussen-T/F 1176 06-08-2018 02:35:00 17.2 C 74 % 12.53 C
1177 06-08-2018 02:40:00 17.1 C 74 % 12.43 C
1178 06-08-2018 02:45:00 17 C 75 % 12.54 C
1179 06-08-2018 02:50:00 16.9 C 75 % 12.44 C
1180 06-08-2018 02:55:00 16.8 C 75 % 12.35 C
1181 06-08-2018 03:00:00 16.8 C 75 % 12.35 C
1182 06-08-2018 03:05:00 16.8 C 75 % 12.35 C
1183 06-08-2018 03:10:00 16.8 C 76 % 12.55 C
1184 06-08-2018 03:15:00 16.7 C 76 % 12.45 C
1185 06-08-2018 03:20:00 16.7 C 76 % 12.45 C
1186 06-08-2018 03:25:00 16.6 C 76 % 12.36 C
1187 06-08-2018 03:30:00 16.5 C 76 % 12.26 C
1188 06-08-2018 03:35:00 16.5 C 76 % 12.26 C
1189 06-08-2018 03:40:00 16.4 C 77 % 12.36 C
1190 06-08-2018 03:45:00 16.4 C 77 % 12.36 C
1191 06-08-2018 03:50:00 16.4 C 77 % 12.36 C
1192 06-08-2018 03:55:00 16.3 C 77 % 12.26 C
1193 06-08-2018 04:00:00 16.3 C 77 % 12.26 C
1194 06-08-2018 04:05:00 16.3 C 78 % 12.46 C
1195 06-08-2018 04:10:00 16.3 C 78 % 12.46 C
1196 06-08-2018 04:15:00 16.2 C 78 % 12.36 C
1197 06-08-2018 04:20:00 16.2 C 78 % 12.36 C
1198 06-08-2018 04:25:00 16.2 C 78 % 12.36 C
1199 06-08-2018 04:30:00 16.1 C 78 % 12.27 C
1200 06-08-2018 04:35:00 16.1 C 78 % 12.27 C
Sensor: Nr:Datum:Temp:Feuchte:Taupunkt:
Aussen-T/F 1201 06-08-2018 04:40:00 16 C 78 % 12.17 C
1202 06-08-2018 04:45:00 15.9 C 78 % 12.07 C
1203 06-08-2018 04:50:00 15.8 C 78 % 11.97 C
1204 06-08-2018 04:55:00 15.8 C 79 % 12.17 C
1205 06-08-2018 05:00:00 15.7 C 79 % 12.07 C
1206 06-08-2018 05:05:00 15.6 C 79 % 11.97 C
1207 06-08-2018 05:10:00 15.6 C 80 % 12.16 C
1208 06-08-2018 05:15:00 15.5 C 80 % 12.07 C
1209 06-08-2018 05:20:00 15.4 C 80 % 11.97 C
1210 06-08-2018 05:25:00 15.3 C 81 % 12.06 C
1211 06-08-2018 05:30:00 15.3 C 81 % 12.06 C
1212 06-08-2018 05:35:00 15.2 C 81 % 11.96 C
1213 06-08-2018 05:40:00 15.2 C 82 % 12.15 C
1214 06-08-2018 05:45:00 15.2 C 82 % 12.15 C
1215 06-08-2018 05:50:00 15.2 C 82 % 12.15 C
1216 06-08-2018 05:55:00 15.1 C 82 % 12.05 C
1217 06-08-2018 06:00:00 15 C 82 % 11.95 C
1218 06-08-2018 06:05:00 14.9 C 82 % 11.86 C
1219 06-08-2018 06:10:00 14.9 C 82 % 11.86 C
1220 06-08-2018 06:15:00 14.8 C 83 % 11.94 C
1221 06-08-2018 06:20:00 14.8 C 83 % 11.94 C
1222 06-08-2018 06:25:00 14.8 C 83 % 11.94 C
1223 06-08-2018 06:30:00 14.8 C 83 % 11.94 C
1224 06-08-2018 06:35:00 14.8 C 84 % 12.12 C
1225 06-08-2018 06:40:00 14.8 C 83 % 11.94 C
Sensor: Nr:Datum:Temp:Feuchte:Taupunkt:
Aussen-T/F 1226 06-08-2018 06:45:00 14.7 C 83 % 11.85 C
1227 06-08-2018 06:50:00 14.7 C 84 % 12.03 C
1228 06-08-2018 06:55:00 14.7 C 84 % 12.03 C
1229 06-08-2018 07:00:00 14.7 C 84 % 12.03 C
1230 06-08-2018 07:05:00 14.7 C 84 % 12.03 C
1231 06-08-2018 07:10:00 14.7 C 84 % 12.03 C
1232 06-08-2018 07:15:00 14.7 C 84 % 12.03 C
1233 06-08-2018 07:20:00 14.7 C 84 % 12.03 C
1234 06-08-2018 07:25:00 14.7 C 84 % 12.03 C
1235 06-08-2018 07:30:00 14.7 C 84 % 12.03 C
1236 06-08-2018 07:35:00 14.8 C 84 % 12.12 C
1237 06-08-2018 07:40:00 14.8 C 84 % 12.12 C
1238 06-08-2018 07:45:00 14.8 C 84 % 12.12 C
1239 06-08-2018 07:50:00 14.9 C 84 % 12.22 C
1240 06-08-2018 07:55:00 14.9 C 84 % 12.22 C
1241 06-08-2018 08:00:00 15 C 84 % 12.32 C
1242 06-08-2018 08:05:00 15.1 C 84 % 12.42 C
1243 06-08-2018 08:10:00 15.2 C 84 % 12.52 C
1244 06-08-2018 08:15:00 15.3 C 84 % 12.61 C
1245 06-08-2018 08:20:00 15.4 C 84 % 12.71 C
1246 06-08-2018 08:25:00 15.5 C 83 % 12.63 C
1247 06-08-2018 08:30:00 15.6 C 83 % 12.72 C
1248 06-08-2018 08:35:00 15.7 C 83 % 12.82 C
1249 06-08-2018 08:40:00 15.7 C 83 % 12.82 C
1250 06-08-2018 08:45:00 15.8 C 82 % 12.74 C
Sensor: Nr:Datum:Temp:Feuchte:Taupunkt:
Aussen-T/F 1251 06-08-2018 08:50:00 16 C 82 % 12.93 C
1252 06-08-2018 08:55:00 16.2 C 83 % 13.31 C
1253 06-08-2018 09:00:00 16.3 C 82 % 13.22 C
1254 06-08-2018 09:05:00 16.5 C 82 % 13.42 C
1255 06-08-2018 09:10:00 16.7 C 81 % 13.43 C
1256 06-08-2018 09:15:00 16.9 C 81 % 13.62 C
1257 06-08-2018 09:20:00 17.1 C 81 % 13.82 C
1258 06-08-2018 09:25:00 17.3 C 80 % 13.82 C
1259 06-08-2018 09:30:00 17.6 C 80 % 14.11 C
1260 06-08-2018 09:35:00 17.8 C 79 % 14.11 C
1261 06-08-2018 09:40:00 17.9 C 78 % 14.01 C
1262 06-08-2018 09:45:00 18.2 C 78 % 14.3 C
1263 06-08-2018 09:50:00 18.4 C 77 % 14.3 C
1264 06-08-2018 09:55:00 18.8 C 76 % 14.48 C
1265 06-08-2018 10:00:00 19.1 C 74 % 14.36 C
1266 06-08-2018 10:05:00 19.6 C 72 % 14.42 C
1267 06-08-2018 10:10:00 20.1 C 71 % 14.68 C
1268 06-08-2018 10:15:00 20.6 C 70 % 14.94 C
1269 06-08-2018 10:20:00 20.9 C 69 % 15 C
1270 06-08-2018 10:25:00 21.3 C 67 % 14.93 C
1271 06-08-2018 10:30:00 21.7 C 65 % 14.84 C
1272 06-08-2018 10:35:00 22.2 C 66 % 15.55 C
1273 06-08-2018 10:40:00 22.5 C 64 % 15.35 C
1274 06-08-2018 10:45:00 22.8 C 61 % 14.89 C
1275 06-08-2018 10:50:00 23.1 C 62 % 15.42 C
Sensor: Nr:Datum:Temp:Feuchte:Taupunkt:
Aussen-T/F 1276 06-08-2018 10:55:00 23.4 C 60 % 15.19 C
1277 06-08-2018 11:00:00 23.9 C 58 % 15.14 C
1278 06-08-2018 11:05:00 24.3 C 57 % 15.24 C
1279 06-08-2018 11:10:00 24.8 C 56 % 15.43 C
1280 06-08-2018 11:15:00 25.2 C 54 % 15.23 C
1281 06-08-2018 11:20:00 25.4 C 56 % 15.99 C
1282 06-08-2018 11:25:00 25.7 C 53 % 15.4 C
1283 06-08-2018 11:30:00 25.9 C 52 % 15.29 C
1284 06-08-2018 11:35:00 26.3 C 51 % 15.36 C
1285 06-08-2018 11:40:00 26.6 C 50 % 15.32 C
1286 06-08-2018 11:45:00 26.8 C 50 % 15.51 C
1287 06-08-2018 11:50:00 27.1 C 49 % 15.47 C
1288 06-08-2018 11:55:00 27.3 C 48 % 15.33 C
1289 06-08-2018 12:00:00 27.4 C 47 % 15.09 C
1290 06-08-2018 12:05:00 27.6 C 46 % 14.94 C
1291 06-08-2018 12:10:00 27.7 C 46 % 15.03 C
1292 06-08-2018 12:15:00 27.8 C 47 % 15.45 C
1293 06-08-2018 12:20:00 27.9 C 46 % 15.21 C
1294 06-08-2018 12:25:00 28.1 C 46 % 15.39 C
1295 06-08-2018 12:30:00 28.2 C 44 % 14.79 C
1296 06-08-2018 12:35:00 28.2 C 44 % 14.79 C
1297 06-08-2018 12:40:00 28.3 C 45 % 15.23 C
1298 06-08-2018 12:45:00 28.3 C 43 % 14.53 C
1299 06-08-2018 12:50:00 28.4 C 43 % 14.62 C
1300 06-08-2018 12:55:00 28.8 C 42 % 14.61 C
Sensor: Nr:Datum:Temp:Feuchte:Taupunkt:
Aussen-T/F 1301 06-08-2018 13:00:00 28.9 C 42 % 14.7 C
1302 06-08-2018 13:05:00 29 C 40 % 14.03 C
1303 06-08-2018 13:10:00 29 C 39 % 13.65 C
1304 06-08-2018 13:15:00 29.1 C 40 % 14.12 C
1305 06-08-2018 13:20:00 29.2 C 40 % 14.21 C
1306 06-08-2018 13:25:00 29.3 C 39 % 13.91 C
1307 06-08-2018 13:30:00 29.5 C 38 % 13.69 C
1308 06-08-2018 13:35:00 29.6 C 38 % 13.78 C
1309 06-08-2018 13:40:00 29.8 C 38 % 13.95 C
1310 06-08-2018 13:45:00 30 C 38 % 14.13 C
1311 06-08-2018 13:50:00 30.1 C 38 % 14.22 C
1312 06-08-2018 13:55:00 30.3 C 37 % 13.99 C
1313 06-08-2018 14:00:00 30.6 C 37 % 14.25 C
1314 06-08-2018 14:05:00 30.7 C 36 % 13.92 C
1315 06-08-2018 14:10:00 30.6 C 36 % 13.83 C
1316 06-08-2018 14:15:00 30.6 C 37 % 14.25 C
1317 06-08-2018 14:20:00 30.7 C 36 % 13.92 C
1318 06-08-2018 14:25:00 30.8 C 37 % 14.43 C
1319 06-08-2018 14:30:00 30.9 C 36 % 14.09 C
1320 06-08-2018 14:35:00 31 C 37 % 14.6 C
1321 06-08-2018 14:40:00 31 C 36 % 14.18 C
1322 06-08-2018 14:45:00 31.1 C 37 % 14.69 C
1323 06-08-2018 14:50:00 31.2 C 38 % 15.19 C
1324 06-08-2018 14:55:00 31.3 C 36 % 14.44 C
1325 06-08-2018 15:00:00 31.4 C 37 % 14.96 C
Sensor: Nr:Datum:Temp:Feuchte:Taupunkt:
Aussen-T/F 1326 06-08-2018 15:05:00 31.6 C 37 % 15.13 C
1327 06-08-2018 15:10:00 31.8 C 37 % 15.31 C
1328 06-08-2018 15:15:00 32.1 C 36 % 15.15 C
1329 06-08-2018 15:20:00 32.5 C 36 % 15.5 C
1330 06-08-2018 15:25:00 32.8 C 35 % 15.32 C
1331 06-08-2018 15:30:00 33 C 35 % 15.5 C
1332 06-08-2018 15:35:00 33.2 C 35 % 15.67 C
1333 06-08-2018 15:40:00 33.4 C 34 % 15.39 C
1334 06-08-2018 15:45:00 33.6 C 34 % 15.57 C
1335 06-08-2018 15:50:00 33.9 C 33 % 15.36 C
1336 06-08-2018 15:55:00 34.3 C 33 % 15.71 C
1337 06-08-2018 16:00:00 34.6 C 32 % 15.49 C
1338 06-08-2018 16:05:00 34.3 C 34 % 16.18 C
1339 06-08-2018 16:10:00 33.9 C 33 % 15.36 C
1340 06-08-2018 16:15:00 33.6 C 34 % 15.57 C
1341 06-08-2018 16:20:00 33.3 C 34 % 15.31 C
1342 06-08-2018 16:25:00 33.4 C 34 % 15.39 C
1343 06-08-2018 16:30:00 34.1 C 34 % 16 C
1344 06-08-2018 16:35:00 34.4 C 33 % 15.8 C
1345 06-08-2018 16:40:00 34.6 C 32 % 15.49 C
1346 06-08-2018 16:45:00 34.7 C 32 % 15.58 C
1347 06-08-2018 16:50:00 34.7 C 32 % 15.58 C
1348 06-08-2018 16:55:00 34.4 C 33 % 15.8 C
1349 06-08-2018 17:00:00 34 C 33 % 15.45 C
1350 06-08-2018 17:05:00 33.8 C 36 % 16.64 C
Sensor: Nr:Datum:Temp:Feuchte:Taupunkt:
Aussen-T/F 1351 06-08-2018 17:10:00 33.8 C 34 % 15.74 C
1352 06-08-2018 17:15:00 34.2 C 34 % 16.09 C
1353 06-08-2018 17:20:00 34.8 C 32 % 15.66 C
1354 06-08-2018 17:25:00 34.5 C 32 % 15.4 C
1355 06-08-2018 17:30:00 34.2 C 33 % 15.62 C
1356 06-08-2018 17:35:00 34.3 C 32 % 15.23 C
1357 06-08-2018 17:40:00 34.2 C 33 % 15.62 C
1358 06-08-2018 17:45:00 34.4 C 33 % 15.8 C
1359 06-08-2018 17:50:00 34.8 C 33 % 16.14 C
1360 06-08-2018 17:55:00 35.1 C 31 % 15.43 C
1361 06-08-2018 18:00:00 35.3 C 29 % 14.56 C
1362 06-08-2018 18:05:00 35.4 C 29 % 14.65 C
1363 06-08-2018 18:10:00 35.6 C 29 % 14.82 C
1364 06-08-2018 18:15:00 35.8 C 28 % 14.44 C
1365 06-08-2018 18:20:00 35.8 C 28 % 14.44 C
1366 06-08-2018 18:25:00 35.8 C 28 % 14.44 C
1367 06-08-2018 18:30:00 35.7 C 28 % 14.36 C
1368 06-08-2018 18:35:00 35.3 C 28 % 14.02 C
1369 06-08-2018 18:40:00 35.2 C 32 % 16.01 C
1370 06-08-2018 18:45:00 35.4 C 29 % 14.65 C
1371 06-08-2018 18:50:00 35.7 C 28 % 14.36 C
1372 06-08-2018 18:55:00 35.9 C 28 % 14.53 C
1373 06-08-2018 19:00:00 35.9 C 30 % 15.6 C
1374 06-08-2018 19:05:00 35.9 C 28 % 14.53 C
1375 06-08-2018 19:10:00 36.1 C 27 % 14.14 C
Sensor: Nr:Datum:Temp:Feuchte:Taupunkt:
Aussen-T/F 1376 06-08-2018 19:15:00 35.9 C 27 % 13.97 C
1377 06-08-2018 19:20:00 35.7 C 27 % 13.8 C
1378 06-08-2018 19:25:00 35.4 C 31 % 15.68 C
1379 06-08-2018 19:30:00 35.2 C 33 % 16.49 C
1380 06-08-2018 19:35:00 34.9 C 35 % 17.16 C
1381 06-08-2018 19:40:00 34.6 C 34 % 16.44 C
1382 06-08-2018 19:45:00 34.3 C 36 % 17.08 C
1383 06-08-2018 19:50:00 33.9 C 35 % 16.28 C
1384 06-08-2018 19:55:00 33.6 C 36 % 16.46 C
1385 06-08-2018 20:00:00 33.3 C 38 % 17.05 C
1386 06-08-2018 20:05:00 33 C 38 % 16.78 C
1387 06-08-2018 20:10:00 32.6 C 40 % 17.24 C
1388 06-08-2018 20:15:00 32 C 39 % 16.31 C
1389 06-08-2018 20:20:00 31.6 C 40 % 16.35 C
1390 06-08-2018 20:25:00 31.2 C 41 % 16.38 C
1391 06-08-2018 20:30:00 30.8 C 41 % 16.02 C
1392 06-08-2018 20:35:00 30.4 C 41 % 15.67 C
1393 06-08-2018 20:40:00 30.1 C 43 % 16.14 C
1394 06-08-2018 20:45:00 29.8 C 43 % 15.87 C
1395 06-08-2018 20:50:00 29.4 C 44 % 15.87 C
1396 06-08-2018 20:55:00 29.1 C 44 % 15.6 C
1397 06-08-2018 21:00:00 28.8 C 44 % 15.33 C
1398 06-08-2018 21:05:00 28.5 C 45 % 15.41 C
1399 06-08-2018 21:10:00 28.3 C 45 % 15.23 C
1400 06-08-2018 21:15:00 28.2 C 45 % 15.14 C
Sensor: Nr:Datum:Temp:Feuchte:Taupunkt:
Aussen-T/F 1401 06-08-2018 21:20:00 28 C 45 % 14.96 C
1402 06-08-2018 21:25:00 27.9 C 46 % 15.21 C
1403 06-08-2018 21:30:00 27.8 C 47 % 15.45 C
1404 06-08-2018 21:35:00 27.6 C 50 % 16.24 C
1405 06-08-2018 21:40:00 27.2 C 49 % 15.56 C
1406 06-08-2018 21:45:00 26.9 C 51 % 15.91 C
1407 06-08-2018 21:50:00 26.6 C 50 % 15.32 C
1408 06-08-2018 21:55:00 26.3 C 52 % 15.66 C
1409 06-08-2018 22:00:00 26.2 C 53 % 15.87 C
1410 06-08-2018 22:05:00 25.8 C 53 % 15.5 C
1411 06-08-2018 22:10:00 25.6 C 54 % 15.6 C
1412 06-08-2018 22:15:00 25.4 C 56 % 15.99 C
1413 06-08-2018 22:20:00 25.2 C 56 % 15.8 C
1414 06-08-2018 22:25:00 25 C 54 % 15.05 C
1415 06-08-2018 22:30:00 24.9 C 57 % 15.8 C
1416 06-08-2018 22:35:00 24.8 C 57 % 15.7 C
1417 06-08-2018 22:40:00 24.7 C 58 % 15.88 C
1418 06-08-2018 22:45:00 24.6 C 59 % 16.06 C
1419 06-08-2018 22:50:00 24.4 C 58 % 15.6 C
1420 06-08-2018 22:55:00 24.3 C 58 % 15.51 C
1421 06-08-2018 23:00:00 24.3 C 59 % 15.78 C
1422 06-08-2018 23:05:00 24.3 C 59 % 15.78 C
1423 06-08-2018 23:10:00 24.2 C 59 % 15.68 C
1424 06-08-2018 23:15:00 24 C 60 % 15.76 C
1425 06-08-2018 23:20:00 23.8 C 61 % 15.83 C
Sensor: Nr:Datum:Temp:Feuchte:Taupunkt:
Aussen-T/F 1426 06-08-2018 23:25:00 23.5 C 61 % 15.55 C
1427 06-08-2018 23:30:00 23.3 C 61 % 15.36 C
1428 06-08-2018 23:35:00 23.2 C 61 % 15.26 C
1429 06-08-2018 23:40:00 23.1 C 63 % 15.67 C
1430 06-08-2018 23:45:00 22.9 C 62 % 15.23 C
1431 06-08-2018 23:50:00 22.8 C 63 % 15.39 C
1432 06-08-2018 23:55:00 22.6 C 64 % 15.45 C

Legende:
   Min
   Max


Maximal/Minimal-Werte vom 02.08.2018 - 06.08.2018

Sensor Min Max Avg
Temp
(Aussen-T/F)
14.7 °C
06-08-2018  06:45:00
37.1 °C
03-08-2018  18:45:00
25.08 °C
Feuchte
(Aussen-T/F)
27 %
06-08-2018  19:10:00
96 %
02-08-2018  02:05:00
62.13 %
Taupunkt
(Aussen-T/F)
11.85 C
06-08-2018  06:45:00
20.46 C
02-08-2018  13:00:00
16.23 C

Die Daten stammen von einer Davis Vantage Pro 2 Wetter-Station und werden unter Linux mit der Software wview2wettercgi und aufbereitet. Alle Angaben erfolgen ohne Gewähr für ihre Vollständigkeit oder Richtigkeit.
Kontakt: Rainer Krienke krienke@uni-koblenz.de . Meine Webseiten an der Uni Koblenz oder privat.
Version: $Revision: 0.78 $